Latitude: N 50° 09' 49" Longitude: W 05° 11' 53" Elevation: 168m ASL

There are 17 visitors online

Adverts

<- Previous Day | Today | Next Day ->

All Data for 14 November 2017

Time
A - D
Temp
A - D
Dew Point
A - D
Humidity
A - D
Pressure
A - D
Wind
A - D
Wind Dir Gust
A - D
Rain Rate
A - D
Rain Total
00:01 6.6 6.5 99 1026.6 0.7 SE 2.2 0.0 0.0
00:01 6.6 6.5 99 1026.6 0.7 SE 2.2 0.0 0.0
00:02 6.6 6.5 99 1026.6 0.7 SE 2.2 0.0 0.0
00:04 6.6 6.5 99 1026.7 0.7 SE 1.6 0.0 0.0
00:04 6.6 6.5 99 1026.7 0.7 SE 1.6 0.0 0.0
00:05 6.6 6.5 99 1026.7 0.7 SE 1.6 0.0 0.0
00:07 6.6 6.5 99 1026.5 0.7 SE 1.6 0.0 0.0
00:08 6.6 6.5 99 1026.5 3.1 SE 3.1 0.0 0.0
00:08 6.6 6.5 99 1026.5 3.1 SE 3.1 0.0 0.0
00:09 6.6 6.5 99 1026.7 2.2 SW 3.1 0.0 0.0
00:11 6.6 6.5 99 1026.5 1.6 SE 3.1 0.0 0.0
00:12 6.6 6.5 99 1026.6 1.6 SW 3.1 0.0 0.0
00:13 6.6 6.5 99 1026.5 2.2 SW 3.1 0.0 0.0
00:14 6.6 6.5 99 1026.4 1.6 N 3.1 0.0 0.0
00:15 6.6 6.5 99 1026.6 2.2 N 3.1 0.0 0.0
00:16 6.6 6.5 99 1026.6 2.2 SW 3.1 0.0 0.0
00:17 6.6 6.5 99 1026.5 1.6 SW 3.1 0.0 0.0
00:18 6.6 6.5 99 1026.4 1.6 SW 3.1 0.0 0.0
00:19 6.6 6.5 99 1026.5 2.2 SW 3.1 0.0 0.0
00:19 6.6 6.5 99 1026.5 2.2 SW 3.1 0.0 0.0
00:20 6.6 6.5 99 1026.5 3.1 SW 3.1 0.0 0.0
00:21 6.6 6.5 99 1026.4 3.1 SW 3.1 0.0 0.0
00:22 6.6 6.5 99 1026.5 3.1 SW 3.1 0.0 0.0
00:23 6.7 6.6 99 1026.4 2.2 SW 3.1 0.0 0.0
00:24 6.7 6.6 99 1026.3 4.5 SW 4.5 0.0 0.0
00:26 6.7 6.6 99 1026.5 2.2 W 4.5 0.0 0.0
00:27 6.7 6.6 99 1026.4 6.9 SW 6.9 0.0 0.0
00:28 6.7 6.6 99 1026.4 3.1 W 6.9 0.0 0.0
00:29 6.7 6.6 99 1026.4 2.2 W 6.9 0.0 0.0
00:30 6.7 6.6 99 1026.3 3.1 W 6.9 0.0 0.0
00:31 6.8 6.7 99 1026.4 5.4 SW 6.9 0.0 0.0
00:32 6.8 6.7 99 1026.3 4.5 SW 6.9 0.0 0.0
00:33 6.8 6.7 99 1026.4 5.4 SW 6.9 0.0 0.0
00:33 6.8 6.7 99 1026.4 5.4 SW 6.9 0.0 0.0
00:35 6.9 6.8 99 1026.4 3.8 SW 6.9 0.0 0.0
00:35 6.9 6.8 99 1026.4 3.8 SW 6.9 0.0 0.0
00:37 6.9 6.8 99 1026.2 4.5 SW 6.9 0.0 0.0
00:38 7.0 6.9 99 1026.3 7.6 SW 7.6 0.0 0.0
00:39 7.0 6.9 99 1026.2 6.0 W 7.6 0.0 0.0
00:40 7.1 7.0 99 1026.2 6.9 SW 7.6 0.0 0.0
00:40 7.1 7.0 99 1026.2 6.9 SW 7.6 0.0 0.0
00:41 7.1 7.0 99 1026.4 5.4 SW 7.6 0.0 0.0
00:42 7.2 7.1 99 1026.2 7.6 SW 7.6 0.0 0.0
00:43 7.2 7.1 99 1026.3 5.4 SW 7.6 0.0 0.0
00:44 7.2 7.1 99 1026.2 6.9 SW 7.6 0.0 0.0
00:45 7.3 7.2 99 1026.4 4.5 SW 7.6 0.0 0.0
00:46 7.3 7.2 99 1026.3 4.5 SW 7.6 0.0 0.0
00:47 7.3 7.2 99 1026.4 4.5 SW 7.6 0.0 0.0
00:48 7.3 7.2 99 1026.2 3.8 SW 7.6 0.0 0.0
00:50 7.3 7.2 99 1026.2 6.0 SW 7.6 0.0 0.0
00:51 7.4 7.3 99 1026.3 3.8 SW 7.6 0.0 0.0
00:52 7.4 7.3 99 1026.3 5.4 SW 7.6 0.0 0.0
00:53 7.4 7.3 99 1026.3 4.5 SW 6.9 0.0 0.0
00:54 7.5 7.4 99 1026.2 5.4 SW 6.9 0.0 0.0
00:55 7.5 7.4 99 1026.4 8.3 NNW 8.3 0.0 0.0
00:56 7.5 7.4 99 1026.4 6.0 S 8.3 0.0 0.0
00:57 7.5 7.4 99 1026.4 6.0 S 8.3 0.0 0.0
00:58 7.6 7.5 99 1026.4 5.4 SW 8.3 0.0 0.0
00:59 7.6 7.5 99 1026.2 5.4 S 8.3 0.0 0.0
01:00 7.6 7.5 99 1026.2 5.4 SW 8.3 0.0 0.0
01:01 7.6 7.5 99 1026.4 5.4 SW 8.3 0.0 0.0
01:02 7.6 7.5 99 1026.3 5.4 SW 8.3 0.0 0.0
01:03 7.6 7.5 99 1026.3 5.4 SW 8.3 0.0 0.0
01:04 7.6 7.5 99 1026.3 5.4 SW 8.3 0.0 0.0
01:04 7.6 7.5 99 1026.3 5.4 SW 8.3 0.0 0.0
01:05 7.7 7.6 99 1026.2 4.5 SW 6.0 0.0 0.0
01:06 7.8 7.7 99 1026.2 4.5 SW 6.0 0.0 0.0
01:07 7.7 7.6 99 1026.3 5.4 SW 5.4 0.0 0.0
01:08 7.8 7.7 99 1026.3 6.0 S 6.0 0.0 0.0
01:09 7.8 7.7 99 1026.3 3.1 SW 6.0 0.0 0.0
01:10 7.8 7.7 99 1026.3 4.5 SW 6.0 0.0 0.0
01:11 7.8 7.7 99 1026.3 6.0 W 6.0 0.0 0.0
01:13 7.8 7.7 99 1026.2 4.5 SW 6.0 0.0 0.0
01:14 7.8 7.7 99 1026.3 6.9 SW 6.9 0.0 0.0
01:15 7.8 7.7 99 1026.2 4.5 W 6.9 0.0 0.0
01:16 7.8 7.7 99 1026.2 3.8 SW 6.9 0.0 0.0
01:17 7.8 7.7 99 1026.1 3.8 SW 6.9 0.0 0.0
01:18 7.8 7.7 99 1026.3 2.2 SW 6.9 0.0 0.0
01:19 7.9 7.8 99 1026.3 3.8 SW 6.9 0.0 0.0
01:20 7.8 7.7 99 1026.3 3.1 W 6.9 0.0 0.0
01:21 7.8 7.7 99 1026.2 3.8 NW 6.9 0.0 0.0
01:22 7.9 7.8 99 1026.1 5.4 SW 6.9 0.0 0.0
01:23 7.9 7.8 99 1026.2 5.4 SW 6.9 0.0 0.0
01:24 7.9 7.8 99 1026.2 6.0 S 6.0 0.0 0.0
01:25 7.9 7.8 99 1026.2 5.4 SW 6.0 0.0 0.0
01:26 7.9 7.8 99 1026.2 6.9 SW 6.9 0.0 0.0
01:27 7.9 7.8 99 1026.1 6.9 SW 6.9 0.0 0.0
01:27 7.9 7.8 99 1026.1 6.9 SW 6.9 0.0 0.0
01:28 7.9 7.8 99 1026.2 6.0 SW 6.9 0.0 0.0
01:29 7.9 7.8 99 1026.2 5.4 SW 6.9 0.0 0.0
01:30 7.9 7.8 99 1026.1 4.5 W 6.9 0.0 0.0
01:31 7.9 7.8 99 1026.2 5.4 SW 6.9 0.0 0.0
01:32 7.9 7.8 99 1026.2 6.0 SW 6.9 0.0 0.0
01:33 7.9 7.8 99 1026.2 4.5 SW 6.9 0.0 0.0
01:35 8.0 7.9 99 1026.1 4.5 SW 6.9 0.0 0.0
01:36 8.0 7.9 99 1026.2 4.5 SW 6.9 0.0 0.0
01:37 8.0 7.9 99 1026.2 5.4 W 6.9 0.0 0.0
01:38 8.0 7.9 99 1026.2 4.5 SW 6.0 0.0 0.0
01:39 8.0 7.9 99 1026.2 5.4 W 6.0 0.0 0.0
01:40 8.0 7.9 99 1026.2 6.0 W 6.0 0.0 0.0
01:41 8.0 7.9 99 1026.1 5.4 SW 6.0 0.0 0.0
01:42 8.0 7.9 99 1026.2 6.0 SW 6.0 0.0 0.0
01:43 8.0 7.9 99 1026.1 6.0 SW 6.0 0.0 0.0
01:44 8.0 7.9 99 1026.2 5.4 SW 6.0 0.0 0.0
01:45 8.0 7.9 99 1026.2 6.9 SW 6.9 0.0 0.0
01:46 8.0 7.9 99 1026.1 5.4 SW 6.9 0.0 0.0
01:47 8.0 7.9 99 1026.1 6.9 SW 7.6 0.0 0.0
01:48 8.0 7.9 99 1026.0 6.0 SW 7.6 0.0 0.0
01:48 8.0 7.9 99 1026.0 6.0 SW 7.6 0.0 0.0
01:49 8.1 8.0 99 1026.1 6.0 SW 7.6 0.0 0.0
01:50 8.1 8.0 99 1026.1 7.6 W 7.6 0.0 0.0
01:51 8.1 8.0 99 1026.1 6.9 SW 7.6 0.0 0.0
01:52 8.1 8.0 99 1025.9 6.0 SW 7.6 0.0 0.0
01:53 8.1 8.0 99 1026.1 5.4 SW 7.6 0.0 0.0
01:54 8.1 8.0 99 1026.1 4.5 S 7.6 0.0 0.0
01:55 8.1 8.0 99 1026.0 6.0 S 7.6 0.0 0.0
01:56 8.1 8.0 99 1026.0 6.0 W 7.6 0.0 0.0
01:58 8.2 8.1 99 1026.0 6.0 SW 7.6 0.0 0.0
01:59 8.1 8.0 99 1026.1 5.4 SW 7.6 0.0 0.0
02:00 8.2 8.1 99 1026.1 5.4 SW 7.6 0.0 0.0
02:01 8.2 8.1 99 1026.1 5.4 SW 6.9 0.0 0.0
02:02 8.2 8.1 99 1026.1 5.4 SW 6.9 0.0 0.0
02:03 8.2 8.1 99 1026.1 5.4 SW 6.9 0.0 0.0
02:04 8.2 8.1 99 1026.0 5.4 SW 6.0 0.0 0.0
02:05 8.2 8.1 99 1026.0 5.4 SW 6.0 0.0 0.0
02:05 8.2 8.1 99 1026.0 5.4 SW 6.0 0.0 0.0
02:06 8.2 8.1 99 1026.0 5.4 SW 6.0 0.0 0.0
02:07 8.2 8.1 99 1026.0 6.0 S 6.0 0.0 0.0
02:09 8.2 8.1 99 1026.0 6.0 S 6.0 0.0 0.0
02:10 8.2 8.1 99 1025.9 6.0 NW 6.0 0.0 0.0
02:11 8.2 8.1 99 1025.9 5.4 SW 6.0 0.0 0.0
02:12 8.2 8.1 99 1025.9 4.5 SW 6.0 0.0 0.0
02:13 8.2 8.1 99 1026.0 6.0 SW 6.0 0.0 0.0
02:14 8.2 8.1 99 1025.9 4.5 SW 6.0 0.0 0.0
02:15 8.2 8.1 99 1025.9 4.5 S 6.0 0.0 0.0
02:16 8.2 8.1 99 1025.9 6.9 S 6.9 0.0 0.0
02:17 8.2 8.1 99 1025.8 6.0 S 6.9 0.0 0.0
02:18 8.2 8.1 99 1025.9 6.0 S 6.9 0.0 0.0
02:19 8.2 8.1 99 1025.9 5.4 SW 6.9 0.0 0.0
02:20 8.2 8.1 99 1025.9 5.4 SW 6.9 0.0 0.0
02:21 8.2 8.1 99 1025.8 4.5 SW 6.9 0.0 0.0
02:22 8.2 8.1 99 1025.8 5.4 S 6.9 0.0 0.0
02:22 8.2 8.1 99 1025.8 5.4 S 6.9 0.0 0.0
02:23 8.2 8.1 99 1025.8 6.0 SW 6.9 0.0 0.0
02:24 8.2 8.1 99 1025.9 4.5 SW 6.9 0.0 0.0
02:25 8.2 8.1 99 1025.8 5.4 S 6.9 0.0 0.0
02:26 8.2 8.1 99 1025.7 5.4 SW 6.0 0.0 0.0
02:27 8.2 8.1 99 1025.8 5.4 SW 6.0 0.0 0.0
02:28 8.2 8.1 99 1025.8 5.4 SW 6.0 0.0 0.0
02:29 8.2 8.1 99 1025.7 6.0 W 6.0 0.0 0.0
02:30 8.2 8.1 99 1025.7 6.9 SW 6.9 0.0 0.0
02:31 8.2 8.1 99 1025.6 5.4 SW 6.9 0.0 0.0
02:32 8.2 8.1 99 1025.8 6.0 W 6.9 0.0 0.0
02:34 8.3 8.2 99 1025.6 4.5 SW 6.9 0.0 0.0
02:35 8.3 8.2 99 1025.7 6.0 W 6.9 0.0 0.0
02:36 8.3 8.2 99 1025.6 5.4 S 6.9 0.0 0.0
02:37 8.3 8.2 99 1025.7 4.5 SW 6.9 0.0 0.0
02:38 8.3 8.2 99 1025.6 4.5 SW 6.9 0.0 0.0
02:39 8.3 8.2 99 1025.7 7.6 SW 7.6 0.0 0.0
02:40 8.3 8.2 99 1025.7 6.9 W 7.6 0.0 0.0
02:41 8.3 8.2 99 1025.5 5.4 S 7.6 0.0 0.0
02:42 8.3 8.2 99 1025.5 6.0 SW 7.6 0.0 0.0
02:43 8.3 8.2 99 1025.4 6.9 N 7.6 0.0 0.0
02:44 8.3 8.2 99 1025.4 5.4 SW 7.6 0.0 0.0
02:45 8.3 8.2 99 1025.4 9.2 SW 9.2 0.0 0.0
02:45 8.3 8.2 99 1025.4 9.2 SW 9.2 0.0 0.0
02:46 8.4 8.3 99 1025.4 8.3 SW 9.2 0.0 0.0
02:47 8.3 8.2 99 1025.3 6.0 SW 9.2 0.0 0.0
02:48 8.4 8.3 99 1025.3 8.3 SW 9.2 0.0 0.0
02:49 8.4 8.3 99 1025.4 6.9 SW 9.2 0.0 0.0
02:50 8.4 8.3 99 1025.2 9.2 W 9.2 0.0 0.0
02:51 8.4 8.3 99 1025.3 9.2 SW 9.2 0.0 0.0
02:52 8.4 8.3 99 1025.3 6.0 SW 9.2 0.0 0.0
02:53 8.4 8.3 99 1025.3 6.9 S 9.2 0.0 0.0
02:54 8.5 8.4 99 1025.5 6.9 SW 9.2 0.0 0.0
02:55 8.4 8.3 99 1025.5 8.3 SW 9.2 0.0 0.0
02:57 8.5 8.4 99 1025.4 6.9 SW 9.2 0.0 0.0
02:58 8.5 8.4 99 1025.5 7.6 SW 9.2 0.0 0.0
02:59 8.5 8.4 99 1025.4 8.3 SW 9.2 0.0 0.0
03:00 8.5 8.4 99 1025.4 6.9 SW 9.2 0.0 0.0
03:01 8.5 8.4 99 1025.5 6.9 SW 9.2 0.0 0.0
03:02 8.5 8.4 99 1025.5 6.9 SW 9.2 0.0 0.0
03:03 8.5 8.4 99 1025.4 6.9 SW 9.2 0.0 0.0
03:04 8.5 8.4 99 1025.3 6.9 SW 8.3 0.0 0.0
03:05 8.5 8.4 99 1025.5 6.9 SW 8.3 0.0 0.0
03:05 8.5 8.4 99 1025.5 6.9 SW 8.3 0.0 0.0
03:07 8.5 8.4 99 1025.5 6.9 SW 8.3 0.0 0.0
03:08 8.5 8.4 99 1025.5 5.4 SW 8.3 0.0 0.0
03:08 8.5 8.4 99 1025.5 5.4 SW 8.3 0.0 0.0
03:09 8.5 8.4 99 1025.3 5.4 SW 8.3 0.0 0.0
03:10 8.5 8.4 99 1025.4 8.3 SW 8.3 0.0 0.0
03:11 8.5 8.4 99 1025.4 7.6 SW 8.3 0.0 0.0
03:12 8.6 8.5 99 1025.5 7.6 W 8.3 0.0 0.0
03:13 8.6 8.5 99 1025.3 6.0 SW 8.3 0.0 0.0
03:14 8.6 8.5 99 1025.3 6.0 SW 8.3 0.0 0.0
03:15 8.6 8.5 99 1025.3 6.9 SW 8.3 0.0 0.0
03:16 8.6 8.5 99 1025.5 6.9 SW 8.3 0.0 0.0
03:18 8.6 8.5 99 1025.3 7.6 S 8.3 0.0 0.0
03:19 8.6 8.5 99 1025.4 7.6 SW 8.3 0.0 0.0
03:20 8.6 8.5 99 1025.4 5.4 N 8.3 0.0 0.0
03:21 8.6 8.5 99 1025.4 6.9 SW 7.6 0.0 0.0
03:22 8.6 8.5 99 1025.4 6.0 SW 7.6 0.0 0.0
03:23 8.6 8.5 99 1025.3 4.5 SW 7.6 0.0 0.0
03:24 8.6 8.5 99 1025.3 6.0 SW 7.6 0.0 0.0
03:25 8.6 8.5 99 1025.3 5.4 S 7.6 0.0 0.0
03:26 8.6 8.5 99 1025.3 5.4 SW 7.6 0.0 0.0
03:27 8.6 8.5 99 1025.3 6.0 SW 7.6 0.0 0.0
03:27 8.6 8.5 99 1025.3 6.0 SW 7.6 0.0 0.0
03:28 8.6 8.5 99 1025.3 3.8 SW 7.6 0.0 0.0
03:29 8.6 8.5 99 1025.1 5.4 SW 6.9 0.0 0.0
03:30 8.6 8.5 99 1025.2 4.5 SW 6.9 0.0 0.0
03:31 8.6 8.5 99 1025.2 4.5 SW 6.0 0.0 0.0
03:32 8.6 8.5 99 1025.3 6.0 S 6.0 0.0 0.0
03:33 8.6 8.5 99 1025.2 4.5 S 6.0 0.0 0.0
03:34 8.6 8.5 99 1025.1 5.4 S 6.0 0.0 0.0
03:35 8.6 8.5 99 1025.1 6.0 S 6.0 0.0 0.0
03:36 8.6 8.5 99 1025.2 6.0 S 6.0 0.0 0.0
03:38 8.6 8.5 99 1025.2 4.5 SW 6.0 0.0 0.0
03:39 8.6 8.5 99 1025.2 6.9 SW 6.9 0.0 0.0
03:40 8.6 8.5 99 1025.2 5.4 S 6.9 0.0 0.0
03:41 8.6 8.5 99 1025.2 5.4 S 6.9 0.0 0.0
03:42 8.6 8.5 99 1025.2 5.4 S 6.9 0.0 0.0
03:43 8.6 8.5 99 1025.0 6.0 S 6.9 0.0 0.0
03:44 8.6 8.5 99 1025.1 6.9 S 6.9 0.0 0.0
03:45 8.6 8.5 99 1024.9 5.4 SW 6.9 0.0 0.0
03:46 8.6 8.5 99 1025.1 6.0 SW 6.9 0.0 0.0
03:47 8.6 8.5 99 1025.0 5.4 S 6.9 0.0 0.0
03:47 8.6 8.5 99 1025.0 5.4 S 6.9 0.0 0.0
03:48 8.6 8.5 99 1025.1 5.4 SW 6.9 0.0 0.0
03:49 8.6 8.5 99 1025.2 6.9 S 6.9 0.0 0.0
03:50 8.6 8.5 99 1025.2 6.9 S 6.9 0.0 0.0
03:51 8.6 8.5 99 1025.1 6.0 SW 6.9 0.0 0.0
03:52 8.6 8.5 99 1025.1 4.5 SW 6.9 0.0 0.0
03:53 8.6 8.5 99 1025.2 5.4 SW 6.9 0.0 0.0
03:55 8.6 8.5 99 1025.1 6.9 SW 6.9 0.0 0.0
03:56 8.6 8.5 99 1025.0 3.8 SW 6.9 0.0 0.0
03:57 8.6 8.5 99 1025.0 3.1 S 6.9 0.0 0.0
03:58 8.6 8.5 99 1025.0 3.1 S 6.9 0.0 0.0
03:59 8.6 8.5 99 1025.2 6.9 SW 6.9 0.0 0.0
04:00 8.6 8.5 99 1025.2 5.4 SW 6.9 0.0 0.0
04:01 8.6 8.5 99 1025.1 5.4 NW 6.9 0.0 0.0
04:02 8.6 8.5 99 1025.0 5.4 NW 6.9 0.0 0.0
04:03 8.6 8.5 99 1025.1 5.4 NW 6.9 0.0 0.0
04:04 8.6 8.5 99 1025.1 5.4 NW 6.9 0.0 0.0
04:04 8.6 8.5 99 1025.1 5.4 NW 6.9 0.0 0.0
04:05 8.6 8.5 99 1025.0 5.4 NW 6.9 0.0 0.0
04:07 8.7 8.6 99 1024.9 6.0 SW 6.9 0.0 0.0
04:07 8.7 8.6 99 1024.9 6.0 SW 6.9 0.0 0.0
04:08 8.7 8.6 99 1024.9 6.0 S 7.6 0.0 0.0
04:09 8.7 8.6 99 1024.9 6.9 NW 7.6 0.0 0.0
04:10 8.7 8.6 99 1024.9 6.0 SW 7.6 0.0 0.0
04:11 8.7 8.6 99 1024.9 4.5 SW 7.6 0.0 0.0
04:12 8.7 8.6 99 1024.9 6.0 SW 7.6 0.0 0.0
04:13 8.7 8.6 99 1024.9 5.4 SW 7.6 0.0 0.0
04:15 8.9 8.8 99 1024.9 5.4 SW 7.6 0.0 0.0
04:16 8.7 8.6 99 1025.0 7.6 SW 7.6 0.0 0.0
04:17 8.7 8.6 99 1024.9 6.9 SW 7.6 0.0 0.0
04:18 8.7 8.6 99 1025.0 6.9 S 7.6 0.0 0.0
04:19 8.7 8.6 99 1024.8 8.3 SW 8.3 0.0 0.0
04:20 8.7 8.6 99 1024.8 7.6 SW 8.3 0.0 0.0
04:21 8.8 8.7 99 1024.7 6.0 SW 8.3 0.0 0.0
04:22 8.7 8.6 99 1024.9 5.4 SW 8.3 0.0 0.0
04:23 8.7 8.6 99 1024.9 5.4 SW 8.3 0.0 0.0
04:24 8.8 8.7 99 1025.0 6.0 SW 8.3 0.0 0.0
04:24 8.8 8.7 99 1025.0 6.0 SW 8.3 0.0 0.0
04:25 8.8 8.7 99 1024.9 5.4 S 8.3 0.0 0.0
04:26 8.8 8.7 99 1025.0 6.0 SW 8.3 0.0 0.0
04:27 8.8 8.7 99 1024.9 6.0 SW 8.3 0.0 0.0
04:28 8.8 8.7 99 1024.9 4.5 SW 8.3 0.0 0.0
04:29 8.8 8.7 99 1024.8 4.5 S 7.6 0.0 0.0
04:30 8.8 8.7 99 1024.9 4.5 S 6.9 0.0 0.0
04:31 8.8 8.7 99 1024.8 5.4 SW 6.9 0.0 0.0
04:32 8.8 8.7 99 1024.9 4.5 SW 6.9 0.0 0.0
04:33 8.8 8.7 99 1024.8 5.4 NW 6.0 0.0 0.0
04:34 8.8 8.7 99 1024.8 5.4 SW 6.0 0.0 0.0
04:36 8.8 8.7 99 1025.0 4.5 SW 6.0 0.0 0.0
04:37 8.8 8.7 99 1024.8 5.4 SW 6.0 0.0 0.0
04:38 8.8 8.7 99 1024.9 4.5 S 5.4 0.0 0.0
04:39 8.8 8.7 99 1024.9 5.4 SW 5.4 0.0 0.0
04:40 8.8 8.7 99 1024.9 4.5 SW 5.4 0.0 0.0
04:41 8.8 8.7 99 1024.8 4.5 S 5.4 0.0 0.0
04:42 8.8 8.7 99 1025.1 6.0 S 6.0 0.0 0.0
04:43 8.8 8.7 99 1024.9 5.4 S 6.0 0.0 0.0
04:44 8.8 8.7 99 1024.9 5.4 SW 6.0 0.0 0.0
04:45 8.8 8.7 99 1024.8 4.5 S 6.0 0.0 0.0
04:45 8.8 8.7 99 1024.8 4.5 S 6.0 0.0 0.0
04:47 8.8 8.7 99 1025.0 4.5 SW 6.0 0.0 0.0
04:48 8.8 8.7 99 1024.9 3.8 SW 6.0 0.0 0.0
04:49 8.7 8.6 99 1025.0 3.8 SW 6.0 0.0 0.0
04:50 8.7 8.6 99 1024.8 3.8 SW 6.0 0.0 0.0
04:51 8.7 8.6 99 1024.9 3.1 SW 6.0 0.0 0.0
04:52 8.7 8.6 99 1024.9 3.1 SW 6.0 0.0 0.0
04:53 8.7 8.6 99 1025.0 3.1 S 5.4 0.0 0.0
04:54 8.7 8.6 99 1025.1 3.8 S 5.4 0.0 0.0
04:55 8.7 8.6 99 1024.9 3.1 SW 5.4 0.0 0.0
04:56 8.7 8.6 99 1025.0 3.1 SW 5.4 0.0 0.0
04:57 8.7 8.6 99 1024.8 3.1 S 3.8 0.0 0.0
04:58 8.7 8.6 99 1024.8 2.2 S 3.8 0.0 0.0
04:59 8.7 8.6 99 1025.0 2.2 S 3.8 0.0 0.0
05:00 8.7 8.6 99 1025.0 3.1 S 3.8 0.0 0.0
05:01 8.7 8.6 99 1024.9 3.1 S 3.8 0.0 0.0
05:02 8.7 8.6 99 1024.9 3.1 S 3.8 0.0 0.0
05:03 8.7 8.6 99 1024.8 3.1 S 3.8 0.0 0.0
05:04 8.7 8.6 99 1025.0 3.1 S 3.8 0.0 0.0
05:04 8.7 8.6 99 1025.0 3.1 S 3.8 0.0 0.0
05:06 8.7 8.6 99 1025.0 3.1 S 3.8 0.0 0.0
05:07 8.7 8.6 99 1024.9 3.1 SW 3.8 0.0 0.0
05:07 8.7 8.6 99 1024.9 3.1 SW 3.8 0.0 0.0
05:09 8.7 8.6 99 1025.0 3.1 SW 3.8 0.0 0.0
05:10 8.7 8.6 99 1025.0 3.1 SW 3.1 0.0 0.0
05:11 8.7 8.6 99 1024.9 3.1 SW 3.1 0.0 0.0
05:12 8.7 8.6 99 1024.9 3.1 SW 3.1 0.0 0.0
05:12 8.7 8.6 99 1024.9 3.1 SW 3.1 0.0 0.0
05:14 8.7 8.6 99 1025.0 3.1 SW 4.5 0.0 0.0
05:15 8.7 8.6 99 1025.0 2.2 SW 4.5 0.0 0.0
05:16 8.7 8.6 99 1025.0 3.1 SW 4.5 0.0 0.0
05:17 8.7 8.6 99 1024.9 3.1 S 4.5 0.0 0.0
05:18 8.7 8.6 99 1025.1 2.2 S 4.5 0.0 0.0
05:19 8.7 8.6 99 1024.8 3.1 SW 4.5 0.0 0.0
05:20 8.7 8.6 99 1024.9 2.2 SW 4.5 0.0 0.0
05:21 8.7 8.6 99 1024.9 2.2 S 4.5 0.0 0.0
05:22 8.7 8.6 99 1024.9 3.8 N 4.5 0.0 0.0
05:23 8.7 8.6 99 1024.9 3.1 SW 4.5 0.0 0.0
05:24 8.7 8.6 99 1024.8 2.2 WNW 3.8 0.0 0.0
05:25 8.7 8.6 99 1024.9 3.1 SW 3.8 0.0 0.0
05:26 8.7 8.6 99 1024.8 3.1 SW 3.8 0.0 0.0
05:27 8.7 8.6 99 1024.8 3.1 S 3.8 0.0 0.0
05:28 8.7 8.6 99 1024.7 2.2 S 3.8 0.0 0.0
05:29 8.7 8.6 99 1024.9 3.1 S 3.8 0.0 0.0
05:30 8.7 8.6 99 1024.9 3.8 S 3.8 0.0 0.0
05:31 8.7 8.6 99 1024.7 3.8 SW 3.8 0.0 0.0
05:32 8.7 8.6 99 1024.8 3.8 S 3.8 0.0 0.0
05:32 8.7 8.6 99 1024.8 3.8 S 3.8 0.0 0.0
05:34 8.7 8.6 99 1024.8 2.2 S 3.8 0.0 0.0
05:35 8.7 8.6 99 1024.7 2.2 S 3.8 0.0 0.0
05:36 8.7 8.6 99 1024.8 3.1 SW 3.8 0.0 0.0
05:37 8.7 8.6 99 1024.8 3.1 SW 3.8 0.0 0.0
05:38 8.7 8.6 99 1024.8 3.8 SE 3.8 0.0 0.0
05:39 8.7 8.6 99 1024.9 3.1 SE 3.8 0.0 0.0
05:40 8.7 8.6 99 1024.7 2.2 SE 3.8 0.0 0.0
05:41 8.7 8.6 99 1024.8 4.5 SW 4.5 0.0 0.0
05:42 8.7 8.6 99 1024.8 3.1 S 4.5 0.0 0.0
05:43 8.7 8.6 99 1024.8 3.1 S 4.5 0.0 0.0
05:44 8.7 8.6 99 1024.8 3.1 SW 4.5 0.0 0.0
05:45 8.7 8.6 99 1024.8 3.8 S 4.5 0.0 0.0
05:46 8.7 8.6 99 1024.8 2.2 SW 4.5 0.0 0.0
05:47 8.7 8.6 99 1024.8 2.2 S 4.5 0.0 0.0
05:48 8.7 8.6 99 1024.7 2.2 S 4.5 0.0 0.0
05:49 8.7 8.6 99 1024.7 3.1 S 4.5 0.0 0.0
05:50 8.7 8.6 99 1024.8 3.1 SW 4.5 0.0 0.0
05:51 8.7 8.6 99 1024.7 3.1 SW 3.8 0.0 0.0
05:52 8.7 8.6 99 1024.8 3.1 SW 3.8 0.0 0.0
05:53 8.7 8.6 99 1024.8 3.1 S 3.8 0.0 0.0
05:53 8.7 8.6 99 1024.8 3.1 S 3.8 0.0 0.0
05:55 8.9 8.8 99 1024.7 3.8 SE 3.8 0.0 0.0
05:56 8.7 8.6 99 1024.7 3.1 SW 3.8 0.0 0.0
05:57 8.8 8.7 99 1024.7 3.1 SW 3.8 0.0 0.0
05:58 8.8 8.7 99 1024.7 3.1 S 3.8 0.0 0.0
05:59 8.8 8.7 99 1024.7 3.1 S 3.8 0.0 0.0
06:00 8.8 8.7 99 1024.6 3.1 S 3.8 0.0 0.0
06:01 8.8 8.7 99 1024.6 3.1 SW 3.8 0.0 0.0
06:02 8.8 8.7 99 1024.9 2.2 SW 3.8 0.0 0.0
06:03 8.8 8.7 99 1024.7 2.2 SW 3.8 0.0 0.0
06:04 8.8 8.7 99 1024.7 2.2 SW 3.8 0.0 0.0
06:05 8.8 8.7 99 1024.7 2.2 SW 3.8 0.0 0.0
06:05 8.8 8.7 99 1024.7 2.2 SW 3.8 0.0 0.0
06:07 8.8 8.7 99 1024.6 2.2 SW 3.8 0.0 0.0
06:08 8.9 8.8 99 1024.6 2.2 SW 3.1 0.0 0.0
06:08 8.9 8.8 99 1024.6 2.2 SW 3.1 0.0 0.0
06:10 8.8 8.7 99 1024.8 2.2 SW 3.1 0.0 0.0
06:11 8.8 8.7 99 1024.7 3.1 SW 3.1 0.0 0.0
06:12 8.8 8.7 99 1024.7 3.1 SW 3.1 0.0 0.0
06:13 8.8 8.7 99 1024.8 1.6 SW 3.1 0.0 0.0
06:14 8.8 8.7 99 1024.8 3.8 SW 3.8 0.0 0.0
06:16 8.8 8.7 99 1024.8 2.2 SW 3.8 0.0 0.0
06:16 8.8 8.7 99 1024.8 2.2 SW 3.8 0.0 0.0
06:17 8.7 8.6 99 1024.8 3.1 SW 3.8 0.0 0.0
06:18 8.7 8.6 99 1024.8 2.2 SW 3.8 0.0 0.0
06:19 8.8 8.7 99 1024.7 4.5 SW 4.5 0.0 0.0
06:20 8.8 8.7 99 1024.8 3.8 S 4.5 0.0 0.0
06:21 8.8 8.7 99 1024.8 4.5 SW 4.5 0.0 0.0
06:22 8.8 8.7 99 1024.8 3.1 SW 4.5 0.0 0.0
06:23 8.8 8.7 99 1024.7 3.8 SW 4.5 0.0 0.0
06:24 8.8 8.7 99 1024.7 3.8 SW 4.5 0.0 0.0
06:25 8.8 8.7 99 1024.8 4.5 SW 4.5 0.0 0.0
06:26 8.8 8.7 99 1024.7 2.2 SW 4.5 0.0 0.0
06:27 8.8 8.7 99 1024.8 3.1 SW 4.5 0.0 0.0
06:28 8.8 8.7 99 1024.7 3.1 S 4.5 0.0 0.0
06:29 8.8 8.7 99 1024.8 3.8 SW 4.5 0.0 0.0
06:30 8.8 8.7 99 1024.9 3.1 S 4.5 0.0 0.0
06:31 8.8 8.7 99 1024.7 4.5 S 4.5 0.0 0.0
06:32 8.9 8.8 99 1025.0 4.5 SW 4.5 0.0 0.0
06:32 8.9 8.8 99 1025.0 4.5 SW 4.5 0.0 0.0
06:33 8.9 8.8 99 1024.7 3.1 S 4.5 0.0 0.0
06:35 8.9 8.8 99 1024.7 3.1 SE 4.5 0.0 0.0
06:36 8.9 8.8 99 1024.9 3.1 SE 4.5 0.0 0.0
06:37 8.9 8.8 99 1024.7 3.1 SW 4.5 0.0 0.0
06:38 8.9 8.8 99 1024.7 3.8 N 4.5 0.0 0.0
06:39 8.9 8.8 99 1024.7 3.8 SW 4.5 0.0 0.0
06:40 9.0 8.9 99 1024.8 3.8 S 4.5 0.0 0.0
06:41 8.9 8.8 99 1024.8 3.1 S 4.5 0.0 0.0
06:42 9.0 8.9 99 1024.7 3.1 S 4.5 0.0 0.0
06:43 9.0 8.9 99 1024.8 3.8 SW 4.5 0.0 0.0
06:44 9.0 8.9 99 1024.9 3.8 SW 4.5 0.0 0.0
06:45 9.0 8.9 99 1024.7 4.5 SW 4.5 0.0 0.0
06:46 9.0 8.9 99 1024.8 3.1 S 4.5 0.0 0.0
06:47 9.0 8.9 99 1024.9 4.5 S 4.5 0.0 0.0
06:48 9.1 9.0 99 1025.0 4.5 SW 4.5 0.0 0.0
06:48 9.1 9.0 99 1025.0 4.5 SW 4.5 0.0 0.0
06:50 9.1 9.0 99 1025.0 3.8 S 4.5 0.0 0.0
06:51 9.1 9.0 99 1024.8 4.5 S 4.5 0.0 0.0
06:52 9.1 9.0 99 1024.9 3.1 S 4.5 0.0 0.0
06:53 9.1 9.0 99 1024.9 2.2 S 4.5 0.0 0.0
06:54 9.1 9.0 99 1024.9 3.8 S 4.5 0.0 0.0
06:55 9.1 9.0 99 1024.7 4.5 S 4.5 0.0 0.0
06:56 9.1 9.0 99 1024.8 3.8 N 4.5 0.0 0.0
06:57 9.1 9.0 99 1024.8 3.1 N 4.5 0.0 0.0
06:58 9.1 9.0 99 1024.8 3.8 SW 4.5 0.0 0.0
06:59 9.2 9.1 99 1025.0 3.8 S 4.5 0.0 0.0
07:00 9.2 9.1 99 1024.9 4.5 SW 4.5 0.0 0.0
07:01 9.2 9.1 99 1024.9 3.8 SW 4.5 0.0 0.0
07:02 9.2 9.1 99 1024.9 5.4 SW 5.4 0.0 0.0
07:03 9.2 9.1 99 1024.9 5.4 SW 5.4 0.0 0.0
07:04 9.2 9.1 99 1024.8 5.4 SW 5.4 0.0 0.0
07:05 9.2 9.1 99 1024.8 5.4 SW 5.4 0.0 0.0
07:06 9.2 9.1 99 1024.9 5.4 SW 5.4 0.0 0.0
07:06 9.2 9.1 99 1024.9 5.4 SW 5.4 0.0 0.0
07:08 9.2 9.1 99 1025.0 5.4 SW 5.4 0.0 0.0
07:09 9.2 9.1 99 1024.9 5.4 W 5.4 0.0 0.0
07:09 9.2 9.1 99 1024.9 5.4 W 5.4 0.0 0.0
07:11 9.2 9.1 99 1024.8 5.4 SW 5.4 0.0 0.0
07:12 9.2 9.1 99 1024.9 4.5 SW 5.4 0.0 0.0
07:13 9.3 9.2 99 1024.9 4.5 S 5.4 0.0 0.0
07:14 9.3 9.2 99 1024.9 3.8 SW 5.4 0.0 0.0
07:15 9.3 9.2 99 1024.9 4.5 SW 5.4 0.0 0.0
07:16 9.3 9.2 99 1025.0 3.1 SW 5.4 0.0 0.0
07:17 9.3 9.2 99 1025.0 3.1 SW 5.4 0.0 0.0
07:18 9.3 9.2 99 1025.0 3.1 S 5.4 0.0 0.0
07:19 9.3 9.2 99 1024.9 3.1 S 5.4 0.0 0.0
07:20 9.3 9.2 99 1024.9 3.8 S 5.4 0.0 0.0
07:21 9.3 9.2 99 1025.0 3.8 S 4.5 0.0 0.0
07:22 9.4 9.3 99 1025.0 4.5 S 4.5 0.0 0.0
07:23 9.4 9.3 99 1025.0 5.4 S 5.4 0.0 0.0
07:24 9.3 9.2 99 1025.0 4.5 SW 5.4 0.0 0.0
07:25 9.3 9.2 99 1025.0 5.4 SW 5.4 0.0 0.0
07:26 9.4 9.3 99 1025.1 5.4 SW 5.4 0.0 0.0
07:27 9.4 9.3 99 1025.0 4.5 SW 5.4 0.0 0.0
07:28 9.4 9.3 99 1024.9 3.1 SW 5.4 0.0 0.0
07:29 9.4 9.3 99 1025.0 5.4 S 5.4 0.0 0.0
07:30 9.4 9.3 99 1025.1 4.5 SW 5.4 0.0 0.0
07:31 9.4 9.3 99 1025.1 5.4 NW 5.4 0.0 0.0
07:32 9.4 9.3 99 1025.1 4.5 SW 5.4 0.0 0.0
07:33 9.4 9.3 99 1025.1 6.0 SW 6.0 0.0 0.0
07:34 9.5 9.4 99 1025.1 5.4 SW 6.0 0.0 0.0
07:35 9.5 9.4 99 1025.1 3.1 SW 6.0 0.0 0.0
07:36 9.4 9.3 99 1025.1 4.5 NNW 6.0 0.0 0.0
07:37 9.4 9.3 99 1025.0 5.4 SW 6.0 0.0 0.0
07:38 9.5 9.4 99 1025.0 4.5 SW 6.0 0.0 0.0
07:39 9.5 9.4 99 1025.0 4.5 SW 6.0 0.0 0.0
07:40 9.5 9.4 99 1025.0 4.5 NW 6.0 0.0 0.0
07:41 9.5 9.4 99 1025.1 4.5 SW 6.0 0.0 0.0
07:42 9.5 9.4 99 1025.2 4.5 SW 6.0 0.0 0.0
07:43 9.5 9.4 99 1025.1 5.4 SW 6.0 0.0 0.0
07:44 9.5 9.4 99 1025.1 6.0 SW 6.0 0.0 0.0
07:44 9.5 9.4 99 1025.1 6.0 SW 6.0 0.0 0.0
07:45 9.5 9.4 99 1025.3 3.8 SW 6.0 0.0 0.0
07:46 9.5 9.4 99 1025.2 6.0 SW 6.0 0.0 0.0
07:47 9.5 9.4 99 1025.2 6.0 W 6.0 0.0 0.0
07:49 9.5 9.4 99 1025.1 9.8 SW 9.8 0.0 0.0
07:50 9.5 9.4 99 1025.2 6.9 SW 9.8 0.0 0.0
07:51 9.6 9.5 99 1025.2 6.9 SW 9.8 0.0 0.0
07:52 9.6 9.5 99 1025.2 4.5 SW 9.8 0.0 0.0
07:53 9.6 9.5 99 1025.2 6.9 W 9.8 0.0 0.0
07:54 9.6 9.5 99 1025.2 4.5 SW 9.8 0.0 0.0
07:55 9.6 9.5 99 1025.2 4.5 SW 9.8 0.0 0.0
07:56 9.6 9.5 99 1025.1 4.5 S 9.8 0.0 0.0
07:57 9.6 9.5 99 1025.1 4.5 S 9.8 0.0 0.0
07:58 9.6 9.5 99 1025.3 5.4 S 9.8 0.0 0.0
07:59 9.6 9.5 99 1025.3 4.5 SW 9.8 0.0 0.0
08:00 9.6 9.5 99 1025.2 4.5 SW 8.3 0.0 0.0
08:01 9.6 9.5 99 1025.3 6.9 SW 8.3 0.0 0.0
08:02 9.6 9.5 99 1025.2 6.0 SW 6.9 0.0 0.0
08:03 9.6 9.5 99 1025.2 4.5 SW 6.9 0.0 0.0
08:04 9.6 9.5 99 1025.2 4.5 SW 6.9 0.0 0.0
08:05 9.6 9.5 99 1025.2 4.5 SW 6.9 0.0 0.0
08:06 9.6 9.5 99 1025.2 4.5 SW 6.9 0.0 0.0
08:07 9.6 9.5 99 1025.2 6.9 SW 6.9 0.0 0.0
08:07 9.6 9.5 99 1025.2 6.9 SW 6.9 0.0 0.0
08:09 9.6 9.5 99 1025.3 7.6 SW 7.6 0.0 0.0
08:10 9.6 9.5 99 1025.2 10.7 SW 10.7 0.0 0.0
08:10 9.6 9.5 99 1025.2 10.7 SW 10.7 0.0 0.0
08:12 9.6 9.5 99 1025.2 7.6 SW 10.7 0.0 0.0
08:13 9.7 9.6 99 1025.3 6.0 SW 10.7 0.0 0.0
08:14 9.7 9.6 99 1025.2 6.0 SW 10.7 0.0 0.0
08:15 9.7 9.6 99 1025.2 6.0 SW 10.7 0.0 0.0
08:16 9.7 9.6 99 1025.4 8.3 S 10.7 0.0 0.0
08:17 9.6 9.5 99 1025.2 7.6 SW 10.7 0.0 0.0
08:18 9.7 9.6 99 1025.3 5.4 SW 10.7 0.0 0.0
08:19 9.7 9.6 99 1025.2 6.0 SW 10.7 0.0 0.0
08:20 9.7 9.6 99 1025.3 5.4 SW 10.7 0.0 0.0
08:21 9.7 9.6 99 1025.3 4.5 NW 8.3 0.0 0.0
08:22 9.7 9.6 99 1025.2 5.4 W 8.3 0.0 0.0
08:23 9.7 9.6 99 1025.4 6.9 SW 8.3 0.0 0.0
08:24 9.7 9.6 99 1025.4 6.0 SW 8.3 0.0 0.0
08:25 9.7 9.6 99 1025.3 6.0 SW 8.3 0.0 0.0
08:26 9.7 9.6 99 1025.2 7.6 W 8.3 0.0 0.0
08:27 9.7 9.6 99 1025.3 6.9 SW 7.6 0.0 0.0
08:28 9.7 9.6 99 1025.2 6.9 SW 7.6 0.0 0.0
08:29 9.7 9.6 99 1025.2 5.4 SW 7.6 0.0 0.0
08:30 9.7 9.6 99 1025.2 6.0 SW 7.6 0.0 0.0
08:31 9.7 9.6 99 1025.2 6.9 SW 7.6 0.0 0.0
08:32 9.7 9.6 99 1025.3 5.4 SW 7.6 0.0 0.0
08:33 9.7 9.6 99 1025.2 6.0 SW 7.6 0.0 0.0
08:34 9.7 9.6 99 1025.2 6.0 SW 7.6 0.0 0.0
08:35 9.7 9.6 99 1025.3 6.9 SW 7.6 0.0 0.0
08:36 9.7 9.6 99 1025.2 8.3 SW 8.3 0.0 0.0
08:37 9.7 9.6 99 1025.2 6.9 SW 8.3 0.0 0.0
08:38 9.7 9.6 99 1025.3 6.9 SW 8.3 0.0 0.0
08:39 9.7 9.6 99 1025.2 9.2 SW 9.2 0.0 0.0
08:40 9.8 9.7 99 1025.2 9.2 SW 9.2 0.0 0.0
08:41 9.7 9.6 99 1025.3 7.6 W 9.2 0.0 0.0
08:42 9.7 9.6 99 1025.3 6.0 W 9.2 0.0 0.0
08:43 9.7 9.6 99 1025.3 6.0 S 9.2 0.0 0.0
08:44 9.7 9.6 99 1025.2 5.4 SW 9.2 0.0 0.0
08:45 9.7 9.6 99 1025.3 4.5 SW 9.2 0.0 0.0
08:46 9.7 9.6 99 1025.3 5.4 NW 9.2 0.0 0.0
08:47 9.7 9.6 99 1025.3 6.9 SW 9.2 0.0 0.0
08:48 9.8 9.7 99 1025.2 3.8 W 9.2 0.0 0.0
08:49 9.8 9.7 99 1025.2 4.5 W 9.2 0.0 0.0
08:50 9.8 9.7 99 1025.3 5.4 W 9.2 0.0 0.0
08:51 9.7 9.6 99 1025.3 3.8 WNW 6.9 0.0 0.0
08:52 9.8 9.7 99 1025.2 3.1 SW 6.9 0.0 0.0
08:53 9.7 9.6 99 1025.3 6.9 SW 6.9 0.0 0.0
08:54 9.8 9.7 99 1025.3 3.8 S 6.9 0.0 0.0
08:55 9.8 9.7 99 1025.2 4.5 S 6.9 0.0 0.0
08:56 9.8 9.7 99 1025.2 4.5 SW 6.9 0.0 0.0
08:57 9.8 9.7 99 1025.2 3.8 SW 6.9 0.0 0.0
08:58 9.8 9.7 99 1025.3 3.8 S 6.9 0.0 0.0
08:59 9.8 9.7 99 1025.4 6.0 S 6.9 0.0 0.0
08:59 9.8 9.7 99 1025.4 6.0 S 6.9 0.0 0.0
09:00 9.8 9.7 99 1025.4 6.0 SW 6.9 0.0 0.0
09:02 9.8 9.7 99 1025.5 4.5 S 6.9 0.0 0.0
09:03 9.8 9.7 99 1025.4 6.9 SW 6.9 0.0 0.0
09:04 9.8 9.7 99 1025.4 6.9 SW 6.9 0.0 0.0
09:05 9.8 9.7 99 1025.3 6.9 SW 6.9 0.0 0.0
09:06 9.8 9.7 99 1025.4 6.9 SW 6.9 0.0 0.0
09:06 9.8 9.7 99 1025.4 6.9 SW 6.9 0.0 0.0
09:08 9.8 9.7 99 1025.4 6.0 SW 6.9 0.0 0.0
09:08 9.8 9.7 99 1025.4 6.0 SW 6.9 0.0 0.0
09:10 9.8 9.7 99 1025.3 6.0 SW 7.6 0.0 0.0
09:10 9.8 9.7 99 1025.3 6.0 SW 7.6 0.0 0.0
09:11 9.8 9.7 99 1025.3 5.4 SW 7.6 0.0 0.0
09:13 9.8 9.7 99 1025.4 6.0 SW 7.6 0.0 0.0
09:13 9.8 9.7 99 1025.4 6.0 SW 7.6 0.0 0.0
09:15 9.8 9.7 99 1025.4 6.0 S 7.6 0.0 0.0
09:16 9.8 9.7 99 1025.4 5.4 SW 7.6 0.0 0.0
09:17 9.8 9.7 99 1025.3 6.9 S 7.6 0.0 0.0
09:18 9.8 9.7 99 1025.3 6.9 S 7.6 0.0 0.0
09:19 9.9 9.8 99 1025.4 6.0 S 7.6 0.0 0.0
09:20 9.9 9.8 99 1025.4 4.5 N 7.6 0.0 0.0
09:20 9.9 9.8 99 1025.4 4.5 N 7.6 0.0 0.0
09:22 9.9 9.8 99 1025.4 5.4 SW 7.6 0.0 0.0
09:23 9.9 9.8 99 1025.6 4.5 S 7.6 0.0 0.0
09:24 9.9 9.8 99 1025.3 4.5 SW 7.6 0.0 0.0
09:25 9.9 9.8 99 1025.3 4.5 SW 7.6 0.0 0.0
09:26 9.9 9.8 99 1025.4 6.9 S 7.6 0.0 0.0
09:27 9.9 9.8 99 1025.5 6.0 SW 7.6 0.0 0.0
09:28 9.9 9.8 99 1025.5 6.0 S 7.6 0.0 0.0
09:29 9.9 9.8 99 1025.4 4.5 S 6.9 0.0 0.0
09:30 10.0 9.9 99 1025.3 5.4 S 6.9 0.0 0.0
09:31 10.0 9.9 99 1025.5 6.0 S 6.9 0.0 0.0
09:32 10.0 9.9 99 1025.4 5.4 S 6.9 0.0 0.0
09:33 10.0 9.9 99 1025.4 5.4 S 6.9 0.0 0.0
09:34 10.0 9.9 99 1025.5 6.0 S 6.9 0.0 0.0
09:35 10.0 9.9 99 1025.4 7.6 S 7.6 0.0 0.0
09:36 10.0 9.9 99 1025.4 6.0 S 7.6 0.0 0.0
09:37 10.0 9.9 99 1025.4 6.0 S 7.6 0.0 0.0
09:38 10.0 9.9 99 1025.4 8.3 SW 8.3 0.0 0.0
09:39 10.0 9.9 99 1025.4 9.2 S 9.2 0.0 0.0
09:40 10.0 9.9 99 1025.5 7.6 S 9.2 0.0 0.0
09:41 10.0 9.9 99 1025.5 9.8 S 9.8 0.0 0.0
09:42 10.0 9.9 99 1025.5 6.9 SW 9.8 0.0 0.0
09:43 10.0 9.9 99 1025.6 8.3 SW 9.8 0.0 0.0
09:44 10.0 9.9 99 1025.4 6.9 S 9.8 0.0 0.0
09:45 10.0 9.9 99 1025.4 9.2 SW 9.8 0.0 0.0
09:46 10.0 9.9 99 1025.5 7.6 SW 9.8 0.0 0.0
09:47 10.0 9.9 99 1025.5 5.4 SW 9.8 0.0 0.0
09:48 10.0 9.9 99 1025.5 5.4 S 9.8 0.0 0.0
09:49 10.1 10.0 99 1025.4 6.0 S 9.8 0.0 0.0
09:50 10.1 10.0 99 1025.3 5.4 SW 9.8 0.0 0.0
09:51 10.1 10.0 99 1025.3 6.0 N 9.8 0.0 0.0
09:52 10.0 9.9 99 1025.3 6.9 SW 9.2 0.0 0.0
09:53 10.1 10.0 99 1025.3 5.4 S 9.2 0.0 0.0
09:54 10.1 10.0 99 1025.3 7.6 S 9.2 0.0 0.0
09:55 10.1 10.0 99 1025.2 5.4 SW 9.2 0.0 0.0
09:56 10.1 10.0 99 1025.5 7.6 W 8.3 0.0 0.0
09:57 10.1 10.0 99 1025.4 6.9 SW 8.3 0.0 0.0
09:58 10.1 10.0 99 1025.5 6.9 S 8.3 0.0 0.0
09:59 10.1 10.0 99 1025.4 6.9 SW 8.3 0.0 0.0
10:00 10.1 10.0 99 1025.4 6.9 SW 7.6 0.0 0.0
10:00 10.1 10.0 99 1025.4 6.9 SW 7.6 0.0 0.0
10:01 10.1 10.0 99 1025.5 9.8 SW 9.8 0.0 0.0
10:02 10.1 10.0 99 1025.5 9.2 SW 9.8 0.0 0.0
10:03 10.1 10.0 99 1025.5 9.2 SW 9.8 0.0 0.0
10:05 10.1 10.0 99 1025.5 9.2 SW 9.8 0.0 0.0
10:06 10.1 10.0 99 1025.6 9.2 SW 9.8 0.0 0.0
10:07 10.1 10.0 99 1025.5 9.2 SW 9.8 0.0 0.0
10:08 10.1 10.0 99 1025.7 6.0 S 9.8 0.0 0.0
10:08 10.1 10.0 99 1025.7 6.0 S 9.8 0.0 0.0
10:10 10.2 10.1 99 1025.6 6.0 S 9.8 0.0 0.0
10:11 10.2 10.1 99 1025.4 5.4 S 9.2 0.0 0.0
10:12 10.2 10.1 99 1025.6 5.4 S 9.2 0.0 0.0
10:12 10.2 10.1 99 1025.6 5.4 S 9.2 0.0 0.0
10:13 10.2 10.1 99 1025.6 6.9 S 9.2 0.0 0.0
10:15 10.2 10.1 99 1025.6 5.4 S 9.2 0.0 0.0
10:16 10.2 10.1 99 1025.6 5.4 S 9.2 0.0 0.0
10:17 10.2 10.1 99 1025.5 5.4 S 9.2 0.0 0.0
10:18 10.2 10.1 99 1025.7 5.4 SW 7.6 0.0 0.0
10:19 10.2 10.1 99 1025.6 5.4 SW 6.9 0.0 0.0
10:20 10.2 10.1 99 1025.6 4.5 SW 6.9 0.0 0.0
10:21 10.2 10.1 99 1025.5 5.4 SW 6.9 0.0 0.0
10:22 10.2 10.1 99 1025.6 7.6 SW 7.6 0.0 0.0
10:23 10.3 10.2 99 1025.5 6.0 SW 7.6 0.0 0.0
10:24 10.3 10.2 99 1025.6 6.0 SW 7.6 0.0 0.0
10:25 10.3 10.2 99 1025.7 6.0 SE 7.6 0.0 0.0
10:26 10.3 10.2 99 1025.6 5.4 S 7.6 0.0 0.0
10:27 10.3 10.2 99 1025.6 6.9 S 7.6 0.0 0.0
10:28 10.3 10.2 99 1025.7 5.4 S 7.6 0.0 0.0
10:29 10.3 10.2 99 1025.7 5.4 S 7.6 0.0 0.0
10:29 10.3 10.2 99 1025.7 5.4 S 7.6 0.0 0.0
10:30 10.3 10.2 99 1025.6 6.0 SW 7.6 0.0 0.0
10:31 10.3 10.2 99 1025.7 6.0 S 7.6 0.0 0.0
10:32 10.3 10.2 99 1025.7 7.6 SW 7.6 0.0 0.0
10:33 10.3 10.2 99 1025.5 6.0 S 7.6 0.0 0.0
10:34 10.3 10.2 99 1025.6 6.0 S 7.6 0.0 0.0
10:35 10.3 10.2 99 1025.6 7.6 SW 7.6 0.0 0.0
10:36 10.3 10.2 99 1025.7 7.6 S 7.6 0.0 0.0
10:37 10.4 10.3 99 1025.7 6.9 S 7.6 0.0 0.0
10:39 10.3 10.2 99 1025.7 10.7 S 10.7 0.0 0.0
10:40 10.3 10.2 99 1025.7 9.8 SW 10.7 0.0 0.0
10:41 10.4 10.3 99 1025.6 6.9 SW 10.7 0.0 0.0
10:42 10.4 10.3 99 1025.7 9.2 SW 10.7 0.0 0.0
10:43 10.4 10.3 99 1025.6 6.0 S 10.7 0.0 0.0
10:44 10.3 10.2 99 1025.6 6.9 S 10.7 0.0 0.0
10:45 10.3 10.2 99 1025.5 7.6 SW 10.7 0.0 0.0
10:46 10.3 10.2 99 1025.5 6.0 S 10.7 0.0 0.0
10:47 10.4 10.3 99 1025.6 6.9 N 10.7 0.0 0.0
10:48 10.4 10.3 99 1025.6 6.0 SW 10.7 0.0 0.0
10:48 10.4 10.3 99 1025.6 6.0 SW 10.7 0.0 0.0
10:49 10.4 10.3 99 1025.5 5.4 SW 10.7 0.0 0.0
10:50 10.4 10.3 99 1025.5 7.6 SW 10.7 0.0 0.0
10:52 10.4 10.3 99 1025.7 7.6 SW 9.2 0.0 0.0
10:53 10.4 10.3 99 1025.4 7.6 SW 8.3 0.0 0.0
10:54 10.4 10.3 99 1025.5 8.3 SW 8.3 0.0 0.0
10:55 10.4 10.3 99 1025.5 6.0 S 8.3 0.0 0.0
10:56 10.4 10.3 99 1025.6 6.9 S 8.3 0.0 0.0
10:57 10.5 10.4 99 1025.5 6.0 SW 8.3 0.0 0.0
10:58 10.5 10.4 99 1025.7 9.8 SW 9.8 0.0 0.0
10:59 10.5 10.4 99 1025.6 8.3 S 9.8 0.0 0.0
11:00 10.5 10.4 99 1025.6 8.3 SW 9.8 0.0 0.0
11:01 10.5 10.4 99 1025.5 8.3 S 9.8 0.0 0.0
11:02 10.5 10.4 99 1025.6 5.4 S 9.8 0.0 0.0
11:02 10.5 10.4 99 1025.6 5.4 S 9.8 0.0 0.0
11:03 10.5 10.4 99 1025.6 5.4 S 9.8 0.0 0.0
11:05 10.5 10.4 99 1025.5 5.4 S 9.8 0.0 0.0
11:06 10.5 10.4 99 1025.6 5.4 S 9.8 0.0 0.0
11:07 10.5 10.4 99 1025.5 5.4 S 9.8 0.0 0.0
11:07 10.5 10.4 99 1025.5 5.4 S 9.8 0.0 0.0
11:09 10.6 10.5 99 1025.4 9.8 WNW 9.8 0.0 0.0
11:10 10.7 10.6 99 1025.4 9.2 WNW 9.8 0.0 0.0
11:11 10.7 10.6 99 1025.3 11.4 SW 11.4 0.0 0.0
11:11 10.7 10.6 99 1025.3 11.4 SW 11.4 0.0 0.0
11:13 10.7 10.6 99 1025.4 9.8 SW 11.4 0.0 0.0
11:14 10.7 10.6 99 1025.3 11.4 SE 11.4 0.0 0.0
11:14 10.7 10.6 99 1025.3 11.4 SE 11.4 0.0 0.0
11:16 10.7 10.6 99 1025.4 9.8 S 11.4 0.0 0.0
11:17 10.7 10.6 99 1025.4 10.7 S 11.4 0.0 0.0
11:18 10.8 10.7 99 1025.4 8.3 S 11.4 0.0 0.0
11:19 10.8 10.7 99 1025.4 8.3 S 11.4 0.0 0.0
11:19 10.8 10.7 99 1025.4 8.3 S 11.4 0.0 0.0
11:20 10.8 10.7 99 1025.4 8.3 S 11.4 0.0 0.0
11:22 10.8 10.7 99 1025.3 11.4 SW 11.4 0.0 0.0
11:23 10.8 10.7 99 1025.3 9.2 S 11.4 0.0 0.0
11:24 10.8 10.7 99 1025.4 9.2 SW 11.4 0.0 0.0
11:25 10.8 10.7 99 1025.5 9.8 S 11.4 0.0 0.0
11:26 10.7 10.6 99 1025.3 6.9 S 11.4 0.0 0.0
11:27 10.7 10.6 99 1025.3 9.8 SW 11.4 0.0 0.0
11:28 10.7 10.6 99 1025.4 8.3 SW 11.4 0.0 0.0
11:29 10.7 10.6 99 1025.5 9.8 W 11.4 0.0 0.0
11:30 10.7 10.6 99 1025.4 6.9 SW 11.4 0.0 0.0
11:31 10.7 10.6 99 1025.2 7.6 SW 11.4 0.0 0.0
11:32 10.7 10.6 99 1025.2 9.2 SW 9.8 0.0 0.0
11:33 10.7 10.6 99 1025.3 7.6 SW 9.8 0.0 0.0
11:34 10.7 10.6 99 1025.2 7.6 S 9.8 0.0 0.0
11:34 10.7 10.6 99 1025.2 7.6 S 9.8 0.0 0.0
11:35 10.7 10.6 99 1025.4 6.9 SW 9.8 0.0 0.0
11:36 10.7 10.6 99 1025.3 6.0 SW 9.8 0.0 0.0
11:37 10.7 10.6 99 1025.3 5.4 SW 9.8 0.0 0.0
11:38 10.7 10.6 99 1025.3 6.0 SW 9.8 0.0 0.0
11:40 10.7 10.6 99 1025.3 6.0 SW 9.2 0.0 0.0
11:41 10.7 10.6 99 1025.3 7.6 S 9.2 0.0 0.0
11:42 10.7 10.6 99 1025.3 5.4 W 9.2 0.0 0.0
11:43 10.8 10.7 99 1025.2 4.5 SW 8.3 0.0 0.0
11:44 10.8 10.7 99 1025.3 7.6 SW 8.3 0.0 0.0
11:44 10.8 10.7 99 1025.3 7.6 SW 8.3 0.0 0.0
11:45 10.7 10.6 99 1025.1 11.4 SW 11.4 0.0 0.0
11:47 10.8 10.7 99 1025.2 6.9 SW 11.4 0.0 0.0
11:48 10.8 10.7 99 1025.3 7.6 SW 11.4 0.0 0.0
11:48 10.8 10.7 99 1025.3 7.6 SW 11.4 0.0 0.0
11:49 10.8 10.7 99 1025.2 6.0 SW 11.4 0.0 0.0
11:50 10.8 10.7 99 1025.1 7.6 S 11.4 0.0 0.0
11:52 10.8 10.7 99 1025.1 9.8 SW 11.4 0.0 0.0
11:53 10.8 10.7 99 1025.2 9.2 SW 11.4 0.0 0.0
11:54 10.9 10.8 99 1025.1 9.8 SW 11.4 0.0 0.0
11:55 10.9 10.8 99 1025.2 7.6 SW 10.7 0.0 0.0
11:55 10.9 10.8 99 1025.2 7.6 SW 10.7 0.0 0.0
11:57 10.9 10.8 99 1025.2 8.3 SW 9.8 0.0 0.0
11:57 10.9 10.8 99 1025.2 8.3 SW 9.8 0.0 0.0
11:59 10.9 10.8 99 1025.1 9.8 SW 9.8 0.0 0.0
12:00 10.9 10.8 99 1025.2 9.8 SW 9.8 0.0 0.0
12:01 10.9 10.8 99 1025.1 7.6 SW 9.8 0.0 0.0
12:02 10.9 10.8 99 1025.2 10.7 SW 10.7 0.0 0.0
12:03 10.9 10.8 99 1025.2 10.7 SW 10.7 0.0 0.0
12:04 10.9 10.8 99 1025.2 10.7 SW 10.7 0.0 0.0
12:05 10.9 10.8 99 1025.1 9.8 SW 10.7 0.0 0.0
12:05 10.9 10.8 99 1025.1 9.8 SW 10.7 0.0 0.0
12:07 10.9 10.8 99 1025.2 8.3 S 10.7 0.0 0.0
12:08 10.9 10.8 99 1025.1 7.6 SW 10.7 0.0 0.0
12:08 10.9 10.8 99 1025.1 7.6 SW 10.7 0.0 0.0
12:10 10.9 10.8 99 1025.0 8.3 SW 10.7 0.0 0.0
12:11 10.9 10.8 99 1025.1 6.9 SW 10.7 0.0 0.0
12:11 10.9 10.8 99 1025.1 6.9 SW 10.7 0.0 0.0
12:12 10.9 10.8 99 1025.2 9.2 SW 10.7 0.0 0.0
12:13 10.9 10.8 99 1025.1 13.0 SW 13.0 0.0 0.0
12:15 10.9 10.8 99 1025.0 7.6 SW 13.0 0.0 0.0
12:16 10.9 10.8 99 1025.2 6.9 SW 13.0 0.0 0.0
12:17 10.9 10.8 99 1024.8 6.0 SW 13.0 0.0 0.0
12:18 10.9 10.8 99 1025.2 6.0 S 13.0 0.0 0.0
12:19 10.9 10.8 99 1025.1 4.5 SW 13.0 0.0 0.0
12:20 10.9 10.8 99 1025.2 5.4 S 13.0 0.0 0.0
12:21 10.9 10.8 99 1025.1 5.4 S 13.0 0.0 0.0
12:22 10.9 10.8 99 1025.0 6.9 W 13.0 0.0 0.0
12:23 10.9 10.8 99 1025.0 6.9 SW 13.0 0.0 0.0
12:24 10.9 10.8 99 1025.0 9.2 SW 9.2 0.0 0.0
12:25 10.9 10.8 99 1025.0 9.2 SW 9.2 0.0 0.0
12:26 10.9 10.8 99 1025.0 6.9 S 9.2 0.0 0.0
12:27 10.9 10.8 99 1025.0 6.9 S 9.2 0.0 0.0
12:28 10.9 10.8 99 1025.0 7.6 S 10.7 0.0 0.0
12:29 10.9 10.8 99 1025.0 11.4 S 11.4 0.0 0.0
12:30 10.9 10.8 99 1025.1 9.8 S 11.4 0.0 0.0
12:31 10.9 10.8 99 1025.0 10.7 SW 11.4 0.0 0.0
12:32 10.9 10.8 99 1025.0 9.8 SW 11.4 0.0 0.0
12:33 10.9 10.8 99 1025.0 9.8 SW 11.4 0.0 0.0
12:34 10.9 10.8 99 1024.9 6.9 SW 11.4 0.0 0.0
12:35 10.9 10.8 99 1024.9 6.0 SW 11.4 0.0 0.0
12:36 10.9 10.8 99 1025.0 6.0 SW 11.4 0.0 0.0
12:37 10.9 10.8 99 1025.0 8.3 S 11.4 0.0 0.0
12:38 10.9 10.8 99 1024.8 7.6 S 11.4 0.0 0.0
12:39 10.9 10.8 99 1025.0 7.6 SW 11.4 0.0 0.0
12:40 10.9 10.8 99 1025.0 6.0 SW 10.7 0.0 0.0
12:41 11.0 10.9 99 1024.9 9.2 SW 9.8 0.0 0.0
12:42 11.0 10.9 99 1024.9 7.6 W 9.8 0.0 0.0
12:43 11.0 10.9 99 1025.0 6.0 S 9.8 0.0 0.0
12:44 11.1 11.0 99 1024.9 8.3 SW 9.2 0.0 0.0
12:45 11.1 11.0 99 1025.0 8.3 S 9.2 0.0 0.0
12:46 11.1 11.0 99 1024.9 7.6 SW 9.2 0.0 0.0
12:47 11.2 11.1 99 1024.8 6.0 S 9.2 0.0 0.0
12:48 11.2 11.1 99 1024.8 8.3 SW 9.2 0.0 0.0
12:49 11.2 11.1 99 1024.9 8.3 S 9.2 0.0 0.0
12:50 11.3 11.2 99 1024.9 10.7 NW 11.4 0.0 0.0
12:51 11.3 11.2 99 1024.8 11.4 SW 11.4 0.0 0.0
12:52 11.3 11.2 99 1025.0 9.8 S 11.4 0.0 0.0
12:53 11.4 11.3 99 1024.9 11.4 SW 11.4 0.0 0.0
12:54 11.4 11.3 99 1024.8 10.7 S 12.1 0.0 0.0
12:55 11.4 11.3 99 1024.8 7.6 SW 12.1 0.0 0.0
12:56 11.4 11.3 99 1024.8 6.9 WNW 12.1 0.0 0.0
12:57 11.4 11.3 99 1024.8 11.4 SW 12.1 0.0 0.0
12:57 11.4 11.3 99 1024.8 11.4 SW 12.1 0.0 0.0
12:58 11.4 11.3 99 1024.8 11.4 S 14.5 0.0 0.0
12:59 11.4 11.3 99 1024.9 13.6 SW 14.5 0.0 0.0
13:00 11.4 11.3 99 1024.9 8.3 SW 14.5 0.0 0.0
13:01 11.4 11.3 99 1024.8 8.3 S 14.5 0.0 0.0
13:02 11.5 11.4 99 1024.7 9.2 SW 14.5 0.0 0.0
13:03 11.5 11.4 99 1024.8 9.2 SW 14.5 0.0 0.0
13:05 11.5 11.4 99 1024.9 9.2 SW 14.5 0.0 0.0
13:06 11.5 11.4 99 1024.8 9.2 SW 14.5 0.0 0.0
13:07 11.5 11.4 99 1024.8 9.2 SW 14.5 0.0 0.0
13:07 11.5 11.4 99 1024.8 9.2 SW 14.5 0.0 0.0
13:09 11.5 11.4 99 1024.8 6.9 S 13.6 0.0 0.0
13:10 11.6 11.5 99 1024.7 12.1 SW 12.1 0.0 0.0
13:10 11.6 11.5 99 1024.7 12.1 SW 12.1 0.0 0.0
13:12 11.6 11.5 99 1024.7 8.3 SW 13.0 0.0 0.0
13:13 11.6 11.5 99 1024.8 8.3 SW 13.0 0.0 0.0
13:14 11.6 11.5 99 1024.7 8.3 SW 13.0 0.0 0.0
13:15 11.6 11.5 99 1024.7 9.8 SW 13.0 0.0 0.0
13:16 11.6 11.5 99 1024.6 7.6 SW 13.0 0.0 0.0
13:17 11.6 11.5 99 1024.7 6.9 SW 13.0 0.0 0.0
13:18 11.6 11.5 99 1024.8 6.0 S 13.0 0.0 0.0
13:19 11.6 11.5 99 1024.7 8.3 WNW 13.0 0.0 0.0
13:20 11.6 11.5 99 1024.7 10.7 S 13.0 0.0 0.0
13:21 11.6 11.5 99 1024.8 8.3 SW 13.0 0.0 0.0
13:22 11.6 11.5 99 1024.7 8.3 SE 10.7 0.0 0.0
13:23 11.6 11.5 99 1024.6 8.3 S 10.7 0.0 0.0
13:24 11.6 11.5 99 1024.6 8.3 S 10.7 0.0 0.0
13:25 11.5 11.4 99 1024.6 8.3 SW 10.7 0.0 0.0
13:26 11.5 11.4 99 1024.6 6.9 S 10.7 0.0 0.0
13:27 11.5 11.4 99 1024.6 7.6 SE 10.7 0.0 0.0
13:28 11.6 11.5 99 1024.7 7.6 SW 10.7 0.0 0.0
13:29 11.5 11.4 99 1024.5 6.0 SW 10.7 0.0 0.0
13:30 11.5 11.4 99 1024.6 5.4 W 9.8 0.0 0.0
13:30 11.5 11.4 99 1024.6 5.4 W 9.8 0.0 0.0
13:31 11.6 11.5 99 1024.6 6.0 SW 9.8 0.0 0.0
13:32 11.5 11.4 99 1024.6 7.6 S 9.8 0.0 0.0
13:33 11.5 11.4 99 1024.5 5.4 SW 9.8 0.0 0.0
13:34 11.5 11.4 99 1024.6 11.4 SW 11.4 0.0 0.0
13:35 11.5 11.4 99 1024.7 11.4 SW 11.4 0.0 0.0
13:37 11.6 11.5 99 1024.6 9.2 S 11.4 0.0 0.0
13:38 11.5 11.4 99 1024.7 6.9 SW 11.4 0.0 0.0
13:39 11.5 11.4 99 1024.7 7.6 S 11.4 0.0 0.0
13:40 11.6 11.5 99 1024.6 6.9 SW 11.4 0.0 0.0
13:41 11.5 11.4 99 1024.6 5.4 SW 11.4 0.0 0.0
13:42 11.5 11.4 99 1024.6 6.9 NW 11.4 0.0 0.0
13:43 11.5 11.4 99 1024.7 6.0 NW 11.4 0.0 0.0
13:44 11.5 11.4 99 1024.6 7.6 W 11.4 0.0 0.0
13:45 11.5 11.4 99 1024.5 8.3 S 11.4 0.0 0.0
13:46 11.5 11.4 99 1024.5 9.2 S 9.2 0.0 0.0
13:47 11.5 11.4 99 1024.7 8.3 S 9.2 0.0 0.0
13:48 11.5 11.4 99 1024.8 10.7 S 10.7 0.0 0.0
13:49 11.5 11.4 99 1024.8 9.8 SW 10.7 0.0 0.0
13:50 11.5 11.4 99 1024.6 9.8 SW 10.7 0.0 0.0
13:51 11.5 11.4 99 1024.7 7.6 S 10.7 0.0 0.0
13:52 11.5 11.4 99 1024.8 9.2 SW 10.7 0.0 0.0
13:53 11.5 11.4 99 1024.7 9.2 SW 10.7 0.0 0.0
13:54 11.5 11.4 99 1024.7 9.2 S 10.7 0.0 0.0
13:55 11.5 11.4 99 1024.7 7.6 S 10.7 0.0 0.0
13:56 11.5 11.4 99 1024.8 7.6 SW 10.7 0.0 0.0
13:57 11.5 11.4 99 1024.5 5.4 WNW 10.7 0.0 0.0
13:58 11.5 11.4 99 1024.6 13.0 W 13.0 0.0 0.0
13:59 11.5 11.4 99 1024.7 9.2 SW 13.0 0.0 0.0
14:00 11.5 11.4 99 1024.7 7.6 SW 13.0 0.0 0.0
14:01 11.5 11.4 99 1024.5 6.9 SW 13.0 0.0 0.0
14:02 11.5 11.4 99 1024.7 7.6 SW 13.0 0.0 0.0
14:03 11.5 11.4 99 1024.5 7.6 SW 13.0 0.0 0.0
14:04 11.5 11.4 99 1024.6 7.6 SW 13.0 0.0 0.0
14:04 11.5 11.4 99 1024.6 7.6 SW 13.0 0.0 0.0
14:05 11.5 11.4 99 1024.7 7.6 SW 13.0 0.0 0.0
14:07 11.5 11.4 99 1024.7 7.6 SW 13.0 0.0 0.0
14:08 11.5 11.4 99 1024.7 7.6 SW 13.0 0.0 0.0
14:08 11.5 11.4 99 1024.7 7.6 SW 13.0 0.0 0.0
14:10 11.7 11.6 99 1024.6 7.6 SW 7.6 0.0 0.0
14:11 11.7 11.6 99 1024.7 6.9 SW 8.3 0.0 0.0
14:11 11.7 11.6 99 1024.7 6.9 SW 8.3 0.0 0.0
14:12 11.5 11.4 99 1024.7 6.9 SW 8.3 0.0 0.0
14:13 11.5 11.4 99 1024.7 9.8 SW 9.8 0.0 0.0
14:15 11.7 11.6 99 1024.7 9.2 SW 9.8 0.0 0.0
14:16 11.6 11.5 99 1024.5 8.3 SW 9.8 0.0 0.0
14:17 11.5 11.4 99 1024.7 8.3 SW 9.8 0.0 0.0
14:18 11.5 11.4 99 1024.6 8.3 SW 9.8 0.0 0.0
14:19 11.5 11.4 99 1024.6 7.6 WNW 9.8 0.0 0.0
14:20 11.6 11.5 99 1024.6 12.1 S 12.1 0.0 0.0
14:21 11.4 11.3 99 1024.6 10.7 NNW 12.1 0.0 0.0
14:22 11.5 11.4 99 1024.6 8.3 SW 12.1 0.0 0.0
14:23 11.4 11.3 99 1024.5 8.3 SW 12.1 0.0 0.0
14:24 11.4 11.3 99 1024.6 7.6 S 12.1 0.0 0.0
14:25 11.4 11.3 99 1024.5 6.9 S 12.1 0.0 0.0
14:26 11.4 11.3 99 1024.6 9.8 SW 12.1 0.0 0.0
14:27 11.4 11.3 99 1024.7 7.6 SW 12.1 0.0 0.0
14:28 11.4 11.3 99 1024.6 9.2 W 12.1 0.0 0.0
14:29 11.4 11.3 99 1024.6 8.3 S 12.1 0.0 0.0
14:30 11.3 11.2 99 1024.6 9.8 SW 12.1 0.0 0.0
14:31 11.3 11.2 99 1024.6 9.8 SW 12.1 0.0 0.0
14:32 11.3 11.2 99 1024.7 9.2 SW 12.1 0.0 0.0
14:33 11.3 11.2 99 1024.6 11.4 N 12.1 0.0 0.0
14:34 11.3 11.2 99 1024.6 10.7 N 11.4 0.0 0.0
14:35 11.3 11.2 99 1024.4 10.7 S 11.4 0.0 0.0
14:35 11.3 11.2 99 1024.4 10.7 S 11.4 0.0 0.0
14:36 11.3 11.2 99 1024.5 9.8 S 11.4 0.0 0.0
14:37 11.3 11.2 99 1024.6 11.4 S 11.4 0.0 0.0
14:38 11.3 11.2 99 1024.5 8.3 W 11.4 0.0 0.0
14:39 11.3 11.2 99 1024.4 7.6 SW 11.4 0.0 0.0
14:40 11.3 11.2 99 1024.4 9.2 SE 11.4 0.0 0.0
14:41 11.3 11.2 99 1024.5 9.8 SW 11.4 0.0 0.0
14:42 11.3 11.2 99 1024.6 10.7 S 11.4 0.0 0.0
14:43 11.3 11.2 99 1024.5 10.7 SW 11.4 0.0 0.0
14:44 11.3 11.2 99 1024.5 9.2 SW 11.4 0.0 0.0
14:46 11.3 11.2 99 1024.4 7.6 S 11.4 0.0 0.0
14:47 11.3 11.2 99 1024.3 6.9 SW 11.4 0.0 0.0
14:48 11.3 11.2 99 1024.5 7.6 S 10.7 0.0 0.0
14:49 11.3 11.2 99 1024.5 8.3 WNW 10.7 0.0 0.0
14:50 11.3 11.2 99 1024.5 8.3 S 10.7 0.0 0.0
14:51 11.3 11.2 99 1024.3 11.4 SW 11.4 0.0 0.0
14:52 11.3 11.2 99 1024.7 9.8 S 11.4 0.0 0.0
14:53 11.3 11.2 99 1024.4 9.2 S 11.4 0.0 0.0
14:54 11.3 11.2 99 1024.4 7.6 SW 11.4 0.0 0.0
14:55 11.3 11.2 99 1024.6 5.4 WNW 11.4 0.0 0.0
14:56 11.3 11.2 99 1024.4 5.4 WNW 11.4 0.0 0.0
14:57 11.3 11.2 99 1024.5 7.6 SW 11.4 0.0 0.0
14:58 11.3 11.2 99 1024.5 8.3 SW 11.4 0.0 0.0
14:59 11.3 11.2 99 1024.5 7.6 SE 11.4 0.0 0.0
15:00 11.3 11.2 99 1024.5 10.7 SE 11.4 0.0 0.0
15:01 11.3 11.2 99 1024.3 7.6 S 10.7 0.0 0.0
15:01 11.3 11.2 99 1024.3 7.6 S 10.7 0.0 0.0
15:02 11.3 11.2 99 1024.5 9.8 SW 10.7 0.0 0.0
15:03 11.3 11.2 99 1024.3 9.8 SW 10.7 0.0 0.0
15:04 11.3 11.2 99 1024.4 9.8 SW 10.7 0.0 0.0
15:06 11.3 11.2 99 1024.4 9.8 SW 10.7 0.0 0.0
15:07 11.3 11.2 99 1024.6 9.8 SW 10.7 0.0 0.0
15:07 11.3 11.2 99 1024.6 9.8 SW 10.7 0.0 0.0
15:08 11.3 11.2 99 1024.4 9.8 SW 10.7 0.0 0.0
15:10 11.3 11.2 99 1024.6 7.6 S 10.7 0.0 0.0
15:11 11.2 11.1 99 1024.5 9.8 SW 9.8 0.0 0.0
15:11 11.2 11.1 99 1024.5 9.8 SW 9.8 0.0 0.0
15:13 11.2 11.1 99 1024.6 7.6 SW 9.8 0.0 0.0
15:14 11.2 11.1 99 1024.5 7.6 S 9.8 0.0 0.0
15:15 11.2 11.1 99 1024.2 8.3 W 9.8 0.0 0.0
15:16 11.2 11.1 99 1024.5 6.9 S 9.8 0.0 0.0
15:17 11.2 11.1 99 1024.4 7.6 S 9.8 0.0 0.0
15:18 11.2 11.1 99 1024.4 6.9 S 9.8 0.0 0.0
15:19 11.2 11.1 99 1024.2 9.2 SW 9.8 0.0 0.0
15:20 11.2 11.1 99 1024.2 7.6 S 9.8 0.0 0.0
15:20 11.2 11.1 99 1024.2 7.6 S 9.8 0.0 0.0
15:21 11.2 11.1 99 1024.4 6.0 SW 9.8 0.0 0.0
15:22 11.2 11.1 99 1024.4 5.4 NW 9.2 0.0 0.0
15:23 11.2 11.1 99 1024.3 5.4 S 9.2 0.0 0.0
15:24 11.2 11.1 99 1024.4 6.9 W 9.2 0.0 0.0
15:25 11.2 11.1 99 1024.3 8.3 S 9.2 0.0 0.0
15:27 11.2 11.1 99 1024.3 6.9 SW 9.2 0.0 0.0
15:28 11.2 11.1 99 1024.4 6.9 SW 9.2 0.0 0.0
15:29 11.2 11.1 99 1024.5 6.9 SW 9.2 0.0 0.0
15:30 11.2 11.1 99 1024.5 9.8 NNW 9.8 0.0 0.0
15:31 11.2 11.1 99 1024.4 8.3 SW 11.4 0.0 0.0
15:32 11.2 11.1 99 1024.3 8.3 SW 11.4 0.0 0.0
15:33 11.2 11.1 99 1024.4 6.9 S 11.4 0.0 0.0
15:34 11.2 11.1 99 1024.5 6.9 S 11.4 0.0 0.0
15:35 11.1 11.0 99 1024.3 6.9 SW 11.4 0.0 0.0
15:36 11.2 11.1 99 1024.3 8.3 SW 11.4 0.0 0.0
15:37 11.1 11.0 99 1024.4 6.9 SW 11.4 0.0 0.0
15:38 11.1 11.0 99 1024.3 5.4 S 11.4 0.0 0.0
15:39 11.1 11.0 99 1024.3 9.2 S 11.4 0.0 0.0
15:40 11.1 11.0 99 1024.3 6.9 SW 11.4 0.0 0.0
15:41 11.1 11.0 99 1024.2 6.9 S 9.2 0.0 0.0
15:42 11.1 11.0 99 1024.2 6.0 S 9.2 0.0 0.0
15:43 11.1 11.0 99 1024.2 6.0 NW 9.2 0.0 0.0
15:44 11.1 11.0 99 1024.1 7.6 S 9.2 0.0 0.0
15:45 11.1 11.0 99 1024.1 7.6 S 10.7 0.0 0.0
15:46 11.1 11.0 99 1024.1 8.3 SW 10.7 0.0 0.0
15:47 11.1 11.0 99 1024.2 9.2 SW 10.7 0.0 0.0
15:48 11.1 11.0 99 1024.3 8.3 SW 10.7 0.0 0.0
15:49 11.0 10.9 99 1024.2 8.3 S 10.7 0.0 0.0
15:50 11.1 11.0 99 1024.3 6.0 SW 10.7 0.0 0.0
15:50 11.1 11.0 99 1024.3 6.0 SW 10.7 0.0 0.0
15:51 11.1 11.0 99 1024.2 4.5 SW 10.7 0.0 0.0
15:52 11.0 10.9 99 1024.2 4.5 S 10.7 0.0 0.0
15:53 11.0 10.9 99 1024.3 6.9 SW 10.7 0.0 0.0
15:54 11.0 10.9 99 1024.3 10.7 S 10.7 0.0 0.0
15:55 11.0 10.9 99 1024.4 6.9 SE 10.7 0.0 0.0
15:56 11.0 10.9 99 1024.2 7.6 SW 10.7 0.0 0.0
15:57 11.0 10.9 99 1024.2 7.6 SW 10.7 0.0 0.0
15:59 11.0 10.9 99 1024.2 9.2 SW 10.7 0.0 0.0
16:00 11.0 10.9 99 1024.2 7.6 N 10.7 0.0 0.0
16:01 11.0 10.9 99 1024.2 6.9 S 10.7 0.0 0.0
16:02 11.0 10.9 99 1024.3 6.9 S 10.7 0.0 0.0
16:03 11.0 10.9 99 1024.3 8.3 S 10.7 0.0 0.0
16:04 11.0 10.9 99 1024.2 8.3 S 10.7 0.0 0.0
16:05 11.0 10.9 99 1024.2 8.3 S 9.2 0.0 0.0
16:06 11.0 10.9 99 1024.2 8.3 S 9.2 0.0 0.0
16:07 11.0 10.9 99 1024.2 8.3 S 9.2 0.0 0.0
16:07 11.0 10.9 99 1024.2 8.3 S 9.2 0.0 0.0
16:09 11.0 10.9 99 1024.2 5.4 S 9.2 0.0 0.0
16:10 11.0 10.9 99 1024.1 9.8 W 9.8 0.0 0.0
16:10 11.0 10.9 99 1024.1 9.8 W 9.8 0.0 0.0
16:12 11.0 10.9 99 1024.3 6.0 S 9.8 0.0 0.0
16:13 11.0 10.9 99 1024.3 7.6 S 9.8 0.0 0.0
16:14 10.9 10.8 99 1024.2 6.9 S 9.8 0.0 0.0
16:15 10.9 10.8 99 1024.3 6.0 SW 9.8 0.0 0.0
16:16 10.9 10.8 99 1024.2 6.0 S 9.8 0.0 0.0
16:17 10.9 10.8 99 1024.4 4.5 S 9.8 0.0 0.0
16:18 10.9 10.8 99 1024.5 4.5 N 9.8 0.0 0.0
16:19 10.9 10.8 99 1024.4 5.4 SE 9.8 0.0 0.0
16:20 10.9 10.8 99 1024.4 5.4 SW 9.8 0.0 0.0
16:21 10.9 10.8 99 1024.3 5.4 SW 8.3 0.0 0.0
16:22 10.9 10.8 99 1024.4 6.0 S 8.3 0.0 0.0
16:22 10.9 10.8 99 1024.4 6.0 S 8.3 0.0 0.0
16:23 10.9 10.8 99 1024.4 9.2 W 9.2 0.0 0.0
16:24 10.9 10.8 99 1024.2 9.8 SW 9.8 0.0 0.0
16:25 10.9 10.8 99 1024.4 9.8 S 9.8 0.0 0.0
16:26 10.8 10.7 99 1024.4 7.6 S 9.8 0.0 0.0
16:27 10.9 10.8 99 1024.2 5.4 S 9.8 0.0 0.0
16:28 10.8 10.7 99 1024.4 6.0 S 9.8 0.0 0.0
16:29 10.8 10.7 99 1024.4 5.4 SW 9.8 0.0 0.0
16:31 10.8 10.7 99 1024.3 6.9 WNW 9.8 0.0 0.0
16:32 10.9 10.8 99 1024.5 6.9 S 9.8 0.0 0.0
16:33 10.8 10.7 99 1024.5 6.9 SW 9.8 0.0 0.0
16:34 10.8 10.7 99 1024.6 9.8 S 9.8 0.0 0.0
16:35 10.8 10.7 99 1024.5 6.9 S 9.8 0.0 0.0
16:36 10.8 10.7 99 1024.4 5.4 SW 9.8 0.0 0.0
16:37 10.8 10.7 99 1024.4 6.0 WSW 9.8 0.0 0.0
16:38 10.8 10.7 99 1024.5 8.3 S 9.8 0.0 0.0
16:39 10.8 10.7 99 1024.5 6.9 S 9.8 0.0 0.0
16:40 10.8 10.7 99 1024.5 6.0 N 9.8 0.0 0.0
16:41 10.8 10.7 99 1024.4 4.5 SE 9.8 0.0 0.0
16:42 10.8 10.7 99 1024.4 6.9 S 9.8 0.0 0.0
16:43 10.8 10.7 99 1024.4 6.9 SW 9.8 0.0 0.0
16:44 10.8 10.7 99 1024.5 6.0 S 8.3 0.0 0.0
16:45 10.8 10.7 99 1024.3 5.4 S 8.3 0.0 0.0
16:46 10.8 10.7 99 1024.4 6.9 S 8.3 0.0 0.0
16:47 10.8 10.7 99 1024.5 5.4 N 8.3 0.0 0.0
16:48 10.8 10.7 99 1024.5 6.9 N 7.6 0.0 0.0
16:49 10.8 10.7 99 1024.6 7.6 S 7.6 0.0 0.0
16:50 10.8 10.7 99 1024.4 9.2 S 9.2 0.0 0.0
16:51 10.8 10.7 99 1024.4 6.9 S 9.2 0.0 0.0
16:52 10.8 10.7 99 1024.5 6.9 SW 9.2 0.0 0.0
16:53 10.8 10.7 99 1024.3 7.6 S 9.2 0.0 0.0
16:54 10.7 10.6 99 1024.3 6.0 SE 9.2 0.0 0.0
16:55 10.8 10.7 99 1024.5 6.9 SE 9.2 0.0 0.0
16:55 10.8 10.7 99 1024.5 6.9 SE 9.2 0.0 0.0
16:56 10.8 10.7 99 1024.5 6.9 N 9.2 0.0 0.0
16:57 10.8 10.7 99 1024.6 11.4 S 12.1 0.0 0.0
16:58 10.8 10.7 99 1024.4 9.8 N 12.1 0.0 0.0
16:59 10.8 10.7 99 1024.5 10.7 S 12.1 0.0 0.0
17:00 10.8 10.7 99 1024.5 9.8 SW 12.1 0.0 0.0
17:01 10.8 10.7 99 1024.5 9.2 N 12.1 0.0 0.0
17:02 10.8 10.7 99 1024.5 9.2 N 12.1 0.0 0.0
17:04 10.8 10.7 99 1024.4 8.3 S 12.1 0.0 0.0
17:05 10.8 10.7 99 1024.4 8.3 S 12.1 0.0 0.0
17:06 10.8 10.7 99 1024.4 8.3 S 12.1 0.0 0.0
17:07 10.8 10.7 99 1024.4 8.3 S 11.4 0.0 0.0
17:07 10.8 10.7 99 1024.4 8.3 S 11.4 0.0 0.0
17:09 10.8 10.7 99 1024.5 7.6 NW 10.7 0.0 0.0
17:10 10.8 10.7 99 1024.4 6.9 N 9.8 0.0 0.0
17:10 10.8 10.7 99 1024.4 6.9 N 9.8 0.0 0.0
17:12 10.8 10.7 99 1024.4 7.6 S 9.2 0.0 0.0
17:13 10.8 10.7 99 1024.3 8.3 SW 8.3 0.0 0.0
17:14 10.8 10.7 99 1024.4 6.0 S 9.2 0.0 0.0
17:15 10.8 10.7 99 1024.4 4.5 S 9.2 0.0 0.0
17:16 10.7 10.6 99 1024.4 6.0 S 9.2 0.0 0.0
17:17 10.8 10.7 99 1024.3 11.4 S 11.4 0.0 0.0
17:17 10.8 10.7 99 1024.3 11.4 S 11.4 0.0 0.0
17:18 10.8 10.7 99 1024.6 11.4 N 11.4 0.0 0.0
17:19 10.7 10.6 99 1024.4 9.2 S 11.4 0.0 0.0
17:20 10.7 10.6 99 1024.4 9.2 N 11.4 0.0 0.0
17:22 10.7 10.6 99 1024.4 8.3 N 11.4 0.0 0.0
17:23 10.7 10.6 99 1024.6 6.9 S 11.4 0.0 0.0
17:24 10.7 10.6 99 1024.4 6.0 S 11.4 0.0 0.0
17:25 10.7 10.6 99 1024.5 6.0 S 11.4 0.0 0.0
17:26 10.7 10.6 99 1024.6 7.6 S 11.4 0.0 0.0
17:27 10.7 10.6 99 1024.4 4.5 S 11.4 0.0 0.0
17:28 10.7 10.6 99 1024.5 6.9 SE 9.2 0.0 0.0
17:29 10.7 10.6 99 1024.7 6.0 SE 9.2 0.0 0.0
17:29 10.7 10.6 99 1024.7 6.0 SE 9.2 0.0 0.0
17:30 10.7 10.6 99 1024.5 6.9 S 9.2 0.0 0.0
17:31 10.7 10.6 99 1024.5 6.9 S 8.3 0.0 0.0
17:32 10.7 10.6 99 1024.6 5.4 N 7.6 0.0 0.0
17:34 10.6 10.5 99 1024.6 7.6 S 7.6 0.0 0.0
17:35 10.7 10.6 99 1024.7 5.4 S 7.6 0.0 0.0
17:36 10.6 10.5 99 1024.7 4.5 S 7.6 0.0 0.0
17:37 10.7 10.6 99 1024.7 5.4 S 7.6 0.0 0.0
17:37 10.7 10.6 99 1024.7 5.4 S 7.6 0.0 0.0
17:38 10.6 10.5 99 1024.6 6.9 S 7.6 0.0 0.0
17:40 10.6 10.5 99 1024.6 6.9 S 7.6 0.0 0.0
17:41 10.7 10.6 99 1024.7 4.5 S 7.6 0.0 0.0
17:41 10.7 10.6 99 1024.7 4.5 S 7.6 0.0 0.0
17:42 10.6 10.5 99 1024.8 6.9 S 7.6 0.0 0.0
17:43 10.7 10.6 99 1024.7 6.0 S 7.6 0.0 0.0
17:45 10.6 10.5 99 1024.6 6.0 S 6.9 0.0 0.0
17:46 10.7 10.6 99 1024.8 6.0 S 6.9 0.0 0.0
17:47 10.6 10.5 99 1024.6 5.4 S 6.9 0.0 0.0
17:48 10.7 10.6 99 1024.7 9.8 WSW 9.8 0.0 0.0
17:49 10.6 10.5 99 1024.5 6.0 SE 9.8 0.0 0.0
17:50 10.6 10.5 99 1024.7 6.0 S 9.8 0.0 0.0
17:51 10.6 10.5 99 1024.7 6.0 S 9.8 0.0 0.0
17:51 10.6 10.5 99 1024.7 6.0 S 9.8 0.0 0.0
17:52 10.6 10.5 99 1024.6 5.4 S 9.8 0.0 0.0
17:53 10.6 10.5 99 1024.6 7.6 S 9.8 0.0 0.0
17:54 10.6 10.5 99 1024.5 6.9 WSW 9.8 0.0 0.0
17:56 10.6 10.5 99 1024.7 5.4 S 9.8 0.0 0.0
17:57 10.6 10.5 99 1024.6 6.9 WNW 9.8 0.0 0.0
17:58 10.7 10.6 99 1024.6 6.0 S 9.8 0.0 0.0
17:59 10.6 10.5 99 1024.7 6.9 WSW 7.6 0.0 0.0
18:00 10.7 10.6 99 1024.7 5.4 S 7.6 0.0 0.0
18:01 10.6 10.5 99 1024.5 6.9 S 7.6 0.0 0.0
18:02 10.7 10.6 99 1024.6 6.0 SE 7.6 0.0 0.0
18:03 10.7 10.6 99 1024.4 6.9 S 7.6 0.0 0.0
18:04 10.7 10.6 99 1024.6 6.9 S 6.9 0.0 0.0
18:06 10.7 10.6 99 1024.4 6.9 S 6.9 0.0 0.0
18:07 10.7 10.6 99 1024.7 6.9 S 6.9 0.0 0.0
18:07 10.7 10.6 99 1024.7 6.9 S 6.9 0.0 0.0
18:09 10.7 10.6 99 1024.6 6.0 WSW 6.9 0.0 0.0
18:09 10.7 10.6 99 1024.6 6.0 WSW 6.9 0.0 0.0
18:11 10.7 10.6 99 1024.7 6.0 S 6.9 0.0 0.0
18:11 10.7 10.6 99 1024.7 6.0 S 6.9 0.0 0.0
18:12 10.7 10.6 99 1024.6 5.4 WSW 6.9 0.0 0.0
18:14 10.7 10.6 99 1024.7 5.4 WSW 6.9 0.0 0.0
18:15 10.7 10.6 99 1024.7 6.9 S 6.9 0.0 0.0
18:16 10.7 10.6 99 1024.7 9.2 S 9.2 0.0 0.0
18:17 10.7 10.6 99 1024.7 6.9 S 9.8 0.0 0.0
18:17 10.7 10.6 99 1024.7 6.9 S 9.8 0.0 0.0
18:18 10.7 10.6 99 1024.8 11.4 S 11.4 0.0 0.0
18:19 10.7 10.6 99 1024.7 8.3 S 11.4 0.0 0.0
18:20 10.7 10.6 99 1024.7 9.8 S 11.4 0.0 0.0
18:22 10.8 10.7 99 1024.7 6.0 S 11.4 0.0 0.0
18:23 10.8 10.7 99 1024.7 7.6 SE 11.4 0.0 0.0
18:24 10.8 10.7 99 1024.7 8.3 WSW 11.4 0.0 0.0
18:25 10.8 10.7 99 1024.6 7.6 WSW 11.4 0.0 0.0
18:26 10.8 10.7 99 1024.7 8.3 WSW 11.4 0.0 0.0
18:27 10.8 10.7 99 1024.6 7.6 WSW 11.4 0.0 0.0
18:28 10.8 10.7 99 1024.7 6.9 WSW 11.4 0.0 0.0
18:28 10.8 10.7 99 1024.7 6.9 WSW 11.4 0.0 0.0
18:29 10.8 10.7 99 1024.7 7.6 WSW 9.8 0.0 0.0
18:30 10.8 10.7 99 1024.7 11.4 S 11.4 0.0 0.0
18:31 10.8 10.7 99 1024.6 9.2 S 11.4 0.0 0.0
18:33 10.8 10.7 99 1024.7 6.9 WSW 11.4 0.0 0.0
18:34 10.8 10.7 99 1024.6 7.6 WSW 11.4 0.0 0.0
18:35 10.8 10.7 99 1024.7 5.4 W 11.4 0.0 0.0
18:36 10.7 10.6 99 1024.7 6.9 S 11.4 0.0 0.0
18:37 10.8 10.7 99 1024.8 11.4 WSW 11.4 0.0 0.0
18:37 10.8 10.7 99 1024.8 11.4 WSW 11.4 0.0 0.0
18:38 10.7 10.6 99 1024.6 6.9 NW 11.4 0.0 0.0
18:39 10.8 10.7 99 1024.7 6.9 NW 11.4 0.0 0.0
18:40 10.8 10.7 99 1024.7 7.6 WSW 11.4 0.0 0.0
18:42 10.8 10.7 99 1024.7 9.2 WSW 11.4 0.0 0.0
18:43 10.8 10.7 99 1024.7 9.8 WNW 11.4 0.0 0.0
18:44 10.8 10.7 99 1024.7 6.9 S 11.4 0.0 0.0
18:45 10.7 10.6 99 1024.7 8.3 WSW 11.4 0.0 0.0
18:46 10.7 10.6 99 1024.7 6.0 WSW 11.4 0.0 0.0
18:47 10.8 10.7 99 1024.6 9.2 WSW 11.4 0.0 0.0
18:48 10.8 10.7 99 1024.7 6.9 WSW 9.8 0.0 0.0
18:49 10.8 10.7 99 1024.8 8.3 S 9.8 0.0 0.0
18:49 10.8 10.7 99 1024.8 8.3 S 9.8 0.0 0.0
18:50 10.8 10.7 99 1024.8 8.3 S 9.8 0.0 0.0
18:51 10.8 10.7 99 1024.7 7.6 WSW 9.8 0.0 0.0
18:53 10.8 10.7 99 1024.8 9.2 NNW 9.8 0.0 0.0
18:54 10.8 10.7 99 1024.8 6.9 S 9.2 0.0 0.0
18:55 10.8 10.7 99 1024.7 9.2 WSW 9.2 0.0 0.0
18:56 10.8 10.7 99 1024.7 9.8 WSW 9.8 0.0 0.0
18:57 10.8 10.7 99 1024.8 7.6 S 9.8 0.0 0.0
18:58 10.8 10.7 99 1024.7 9.8 W 9.8 0.0 0.0
18:59 10.8 10.7 99 1024.7 6.9 W 9.8 0.0 0.0
18:59 10.8 10.7 99 1024.7 6.9 W 9.8 0.0 0.0
19:00 10.8 10.7 99 1024.7 7.6 WSW 9.8 0.0 0.0
19:01 10.8 10.7 99 1024.7 7.6 S 9.8 0.0 0.0
19:02 10.8 10.7 99 1024.8 7.6 S 9.8 0.0 0.0
19:04 10.8 10.7 99 1024.8 6.9 WSW 9.8 0.0 0.0
19:05 10.8 10.7 99 1024.8 6.9 WSW 9.8 0.0 0.0
19:06 10.8 10.7 99 1024.7 6.9 WSW 9.8 0.0 0.0
19:06 10.8 10.7 99 1024.7 6.9 WSW 9.8 0.0 0.0
19:08 10.8 10.7 99 1024.9 6.9 WSW 9.8 0.0 0.0
19:08 10.8 10.7 99 1024.9 6.9 WSW 9.8 0.0 0.0
19:09 10.8 10.7 99 1024.9 5.4 WSW 7.6 0.0 0.0
19:11 10.9 10.8 99 1024.9 9.8 S 9.8 0.0 0.0
19:11 10.9 10.8 99 1024.9 9.8 S 9.8 0.0 0.0
19:13 10.8 10.7 99 1024.8 9.2 S 9.8 0.0 0.0
19:13 10.8 10.7 99 1024.8 9.2 S 9.8 0.0 0.0
19:14 10.9 10.8 99 1024.9 6.9 WSW 9.8 0.0 0.0
19:15 10.9 10.8 99 1024.8 6.9 S 9.8 0.0 0.0
19:17 10.9 10.8 99 1024.9 8.3 S 9.8 0.0 0.0
19:18 10.9 10.8 99 1024.8 8.3 WSW 9.8 0.0 0.0
19:19 10.9 10.8 99 1025.0 9.2 S 9.8 0.0 0.0
19:20 10.9 10.8 99 1025.0 10.7 S 10.7 0.0 0.0
19:21 10.9 10.8 99 1025.0 7.6 WSW 10.7 0.0 0.0
19:22 10.9 10.8 99 1024.9 6.0 S 10.7 0.0 0.0
19:23 10.9 10.8 99 1024.7 7.6 S 10.7 0.0 0.0
19:23 10.9 10.8 99 1024.7 7.6 S 10.7 0.0 0.0
19:24 10.9 10.8 99 1024.9 9.8 WSW 10.7 0.0 0.0
19:25 10.9 10.8 99 1024.8 6.9 S 10.7 0.0 0.0
19:26 10.9 10.8 99 1025.0 6.0 S 10.7 0.0 0.0
19:28 10.9 10.8 99 1025.0 7.6 W 10.7 0.0 0.0
19:29 10.9 10.8 99 1025.0 7.6 NNE 10.7 0.0 0.0
19:30 10.9 10.8 99 1025.0 6.9 S 10.7 0.0 0.0
19:31 10.9 10.8 99 1025.0 6.9 WSW 9.8 0.0 0.0
19:32 10.9 10.8 99 1025.1 6.9 WSW 9.8 0.0 0.0
19:32 10.9 10.8 99 1025.1 6.9 WSW 9.8 0.0 0.0
19:33 10.9 10.8 99 1025.1 6.0 S 9.8 0.0 0.0
19:34 10.9 10.8 99 1025.0 7.6 WSW 8.3 0.0 0.0
19:35 10.9 10.8 99 1024.9 8.3 WSW 8.3 0.0 0.0
19:37 10.9 10.8 99 1025.0 6.9 S 8.3 0.0 0.0
19:38 10.9 10.8 99 1025.0 8.3 WSW 8.3 0.0 0.0
19:39 10.9 10.8 99 1024.9 7.6 S 8.3 0.0 0.0
19:40 10.9 10.8 99 1024.9 6.0 WSW 8.3 0.0 0.0
19:41 10.8 10.7 99 1024.9 6.0 WSW 8.3 0.0 0.0
19:42 10.8 10.7 99 1025.0 5.4 WSW 8.3 0.0 0.0
19:43 10.9 10.8 99 1025.1 6.9 WSW 8.3 0.0 0.0
19:43 10.9 10.8 99 1025.1 6.9 WSW 8.3 0.0 0.0
19:45 10.8 10.7 99 1024.8 6.9 WSW 8.3 0.0 0.0
19:46 10.8 10.7 99 1024.9 8.3 WSW 8.3 0.0 0.0
19:47 10.8 10.7 99 1025.0 9.2 S 9.2 0.0 0.0
19:49 10.8 10.7 99 1024.9 6.9 WSW 9.2 0.0 0.0
19:50 10.8 10.7 99 1024.9 6.0 S 9.2 0.0 0.0
19:51 10.8 10.7 99 1025.0 6.0 WSW 9.2 0.0 0.0
19:52 10.8 10.7 99 1024.8 8.3 WSW 9.2 0.0 0.0
19:53 10.8 10.7 99 1025.0 6.9 WSW 9.2 0.0 0.0
19:54 10.8 10.7 99 1024.8 9.2 WSW 9.2 0.0 0.0
19:55 10.8 10.7 99 1024.8 6.0 S 9.2 0.0 0.0
19:55 10.8 10.7 99 1024.8 6.0 S 9.2 0.0 0.0
19:56 10.8 10.7 99 1024.9 7.6 S 9.2 0.0 0.0
19:57 10.8 10.7 99 1024.7 7.6 S 9.2 0.0 0.0
19:58 10.8 10.7 99 1024.9 6.9 S 9.2 0.0 0.0
20:00 10.8 10.7 99 1024.8 8.3 WNW 9.2 0.0 0.0
20:01 10.8 10.7 99 1024.8 6.9 WSW 9.2 0.0 0.0
20:02 10.8 10.7 99 1024.7 6.0 S 9.2 0.0 0.0
20:03 10.8 10.7 99 1024.7 6.0 WSW 9.2 0.0 0.0
20:04 10.8 10.7 99 1024.8 6.0 WSW 9.2 0.0 0.0
20:05 10.8 10.7 99 1024.8 6.0 WSW 8.3 0.0 0.0
20:05 10.8 10.7 99 1024.8 6.0 WSW 8.3 0.0 0.0
20:07 10.8 10.7 99 1024.8 6.0 WSW 8.3 0.0 0.0
20:07 10.8 10.7 99 1024.8 6.0 WSW 8.3 0.0 0.0
20:08 10.8 10.7 99 1024.9 5.4 S 8.3 0.0 0.0
20:10 10.8 10.7 99 1024.7 5.4 S 8.3 0.0 0.0
20:10 10.8 10.7 99 1024.7 5.4 S 8.3 0.0 0.0
20:12 10.8 10.7 99 1024.7 8.3 WSW 8.3 0.0 0.0
20:12 10.8 10.7 99 1024.7 8.3 WSW 8.3 0.0 0.0
20:14 10.8 10.7 99 1024.9 7.6 S 8.3 0.0 0.0
20:15 10.8 10.7 99 1024.8 7.6 WSW 9.2 0.0 0.0
20:15 10.8 10.7 99 1024.8 7.6 WSW 9.2 0.0 0.0
20:16 10.8 10.7 99 1025.0 6.9 S 9.2 0.0 0.0
20:17 10.8 10.7 99 1024.9 6.0 WSW 9.2 0.0 0.0
20:18 10.8 10.7 99 1025.0 7.6 S 9.2 0.0 0.0
20:20 10.8 10.7 99 1024.8 6.9 S 9.2 0.0 0.0
20:21 10.8 10.7 99 1024.9 8.3 S 9.2 0.0 0.0
20:22 10.8 10.7 99 1024.9 7.6 S 9.2 0.0 0.0
20:23 10.8 10.7 99 1024.9 7.6 WSW 9.2 0.0 0.0
20:24 10.8 10.7 99 1025.2 7.6 S 9.2 0.0 0.0
20:25 10.8 10.7 99 1024.9 6.9 S 8.3 0.0 0.0
20:25 10.8 10.7 99 1024.9 6.9 S 8.3 0.0 0.0
20:26 10.8 10.7 99 1024.9 6.0 S 8.3 0.0 0.0
20:28 10.8 10.7 99 1025.1 7.6 S 8.3 0.0 0.0
20:28 10.8 10.7 99 1025.1 7.6 S 8.3 0.0 0.0
20:30 10.8 10.7 99 1025.0 6.9 WSW 9.2 0.0 0.0
20:31 10.8 10.7 99 1025.0 5.4 WSW 9.2 0.0 0.0
20:31 10.8 10.7 99 1025.0 5.4 WSW 9.2 0.0 0.0
20:32 10.8 10.7 99 1024.9 5.4 WSW 9.2 0.0 0.0
20:33 10.8 10.7 99 1024.9 5.4 WSW 9.2 0.0 0.0
20:35 10.8 10.7 99 1024.8 6.9 S 9.2 0.0 0.0
20:36 10.8 10.7 99 1024.9 5.4 NNW 9.2 0.0 0.0
20:37 10.8 10.7 99 1024.8 4.5 S 9.2 0.0 0.0
20:38 10.8 10.7 99 1024.9 6.0 WSW 9.2 0.0 0.0
20:39 10.8 10.7 99 1024.9 6.9 S 9.2 0.0 0.0
20:40 10.9 10.8 99 1024.9 6.0 S 6.9 0.0 0.0
20:41 10.8 10.7 99 1024.8 6.9 WSW 6.9 0.0 0.0
20:41 10.8 10.7 99 1024.8 6.9 WSW 6.9 0.0 0.0
20:42 10.8 10.7 99 1025.0 6.0 WSW 6.9 0.0 0.0
20:43 10.8 10.7 99 1024.9 5.4 S 6.9 0.0 0.0
20:44 10.8 10.7 99 1024.9 6.0 S 6.9 0.0 0.0
20:45 10.8 10.7 99 1025.0 6.9 WSW 6.9 0.0 0.0
20:47 10.8 10.7 99 1024.8 6.0 WSW 6.9 0.0 0.0
20:48 10.8 10.7 99 1024.9 6.0 S 6.9 0.0 0.0
20:49 10.8 10.7 99 1024.8 7.6 S 7.6 0.0 0.0
20:50 10.8 10.7 99 1024.8 5.4 S 7.6 0.0 0.0
20:50 10.8 10.7 99 1024.8 5.4 S 7.6 0.0 0.0
20:51 10.8 10.7 99 1024.8 4.5 S 7.6 0.0 0.0
20:52 10.8 10.7 99 1024.9 5.4 S 7.6 0.0 0.0
20:54 10.8 10.7 99 1024.8 6.0 WSW 7.6 0.0 0.0
20:55 10.8 10.7 99 1025.0 6.0 S 7.6 0.0 0.0
20:55 10.8 10.7 99 1025.0 6.0 S 7.6 0.0 0.0
20:56 10.8 10.7 99 1025.0 5.4 WSW 7.6 0.0 0.0
20:57 10.9 10.8 99 1024.9 7.6 S 7.6 0.0 0.0
20:59 10.9 10.8 99 1025.0 5.4 WSW 7.6 0.0 0.0
21:00 10.9 10.8 99 1025.0 6.9 S 7.6 0.0 0.0
21:01 10.8 10.7 99 1025.1 8.3 SW 8.3 0.0 0.0
21:02 10.9 10.8 99 1025.1 6.9 WSW 8.3 0.0 0.0
21:03 10.9 10.8 99 1025.1 6.9 WSW 8.3 0.0 0.0
21:04 10.9 10.8 99 1025.0 6.9 WSW 8.3 0.0 0.0
21:04 10.9 10.8 99 1025.0 6.9 WSW 8.3 0.0 0.0
21:05 10.9 10.8 99 1025.1 6.9 WSW 8.3 0.0 0.0
21:07 10.9 10.8 99 1024.9 6.9 WSW 8.3 0.0 0.0
21:07 10.9 10.8 99 1024.9 6.9 WSW 8.3 0.0 0.0
21:08 10.9 10.8 99 1025.1 5.4 S 8.3 0.0 0.1
21:10 10.9 10.8 99 1025.0 8.3 WSW 8.3 0.8 0.1
21:10 10.9 10.8 99 1025.0 8.3 WSW 8.3 0.8 0.1
21:12 10.8 10.7 99 1024.9 6.9 WSW 8.3 0.8 0.1
21:12 10.8 10.7 99 1024.9 6.9 WSW 8.3 0.8 0.1
21:13 10.8 10.7 99 1025.0 6.9 S 8.3 0.8 0.1
21:15 10.8 10.7 99 1025.1 6.9 WSW 8.3 0.0 0.1
21:15 10.8 10.7 99 1025.1 6.9 WSW 8.3 0.0 0.1
21:17 10.8 10.7 99 1025.0 5.4 S 9.2 0.0 0.1
21:18 10.8 10.7 99 1025.1 5.4 S 9.2 0.0 0.1
21:19 10.8 10.7 99 1025.0 6.0 S 9.2 0.0 0.1
21:20 10.8 10.7 99 1025.0 5.4 WSW 9.2 0.0 0.1
21:21 10.8 10.7 99 1024.9 6.9 NNE 9.2 0.0 0.1
21:21 10.8 10.7 99 1024.9 6.9 NNE 9.2 0.0 0.1
21:22 10.8 10.7 99 1025.1 6.9 S 9.2 0.0 0.1
21:23 10.8 10.7 99 1025.0 6.9 S 9.2 0.0 0.1
21:24 10.8 10.7 99 1024.9 5.4 SE 9.2 0.0 0.1
21:25 10.8 10.7 99 1025.0 3.8 S 9.2 0.0 0.1
21:27 10.8 10.7 99 1024.9 6.9 WSW 8.3 0.0 0.1
21:28 10.8 10.7 99 1025.0 6.0 S 8.3 0.0 0.1
21:29 10.8 10.7 99 1025.1 6.0 WSW 6.9 0.0 0.1
21:30 10.8 10.7 99 1025.0 6.0 S 6.9 0.0 0.1
21:30 10.8 10.7 99 1025.0 6.0 S 6.9 0.0 0.1
21:31 10.8 10.7 99 1025.0 8.3 S 8.3 0.0 0.1
21:32 10.8 10.7 99 1024.9 6.0 S 8.3 0.0 0.1
21:34 10.8 10.7 99 1025.1 5.4 S 8.3 0.0 0.1
21:34 10.8 10.7 99 1025.1 5.4 S 8.3 0.0 0.1
21:35 10.8 10.7 99 1025.0 4.5 S 8.3 0.0 0.1
21:37 10.8 10.7 99 1024.9 4.5 S 8.3 0.0 0.1
21:38 10.8 10.7 99 1025.0 4.5 S 8.3 0.0 0.1
21:39 10.8 10.7 99 1025.0 4.5 S 8.3 0.0 0.1
21:40 10.8 10.7 99 1025.0 3.8 S 8.3 0.0 0.1
21:41 10.8 10.7 99 1025.1 4.5 S 8.3 0.0 0.1
21:42 10.8 10.7 99 1025.0 4.5 S 6.0 0.0 0.1
21:42 10.8 10.7 99 1025.0 4.5 S 6.0 0.0 0.1
21:43 10.8 10.7 99 1024.9 3.8 S 5.4 0.0 0.1
21:44 10.8 10.7 99 1025.0 3.1 S 4.5 0.0 0.1
21:46 10.8 10.7 99 1025.1 3.8 S 4.5 0.0 0.1
21:46 10.8 10.7 99 1025.1 3.8 S 4.5 0.0 0.1
21:48 10.8 10.7 99 1025.0 3.8 S 5.4 0.0 0.1
21:48 10.8 10.7 99 1025.0 3.8 S 5.4 0.0 0.1
21:50 10.8 10.7 99 1024.9 3.8 S 5.4 0.8 0.1
21:50 10.8 10.7 99 1024.9 3.8 S 5.4 0.8 0.1
21:50 10.8 10.7 99 1024.9 3.8 S 5.4 0.8 0.1
21:50 10.8 10.7 99 1024.9 3.8 S 5.4 0.8 0.1
21:54 10.8 10.7 99 1025.0 3.8 WSW 5.4 0.8 0.1
21:54 10.8 10.7 99 1025.0 3.8 WSW 5.4 0.8 0.1
21:54 10.8 10.7 99 1025.0 3.8 WSW 5.4 0.8 0.1
21:57 10.8 10.7 99 1025.1 5.4 WSW 5.4 0.0 0.1
21:59 10.8 10.7 99 1025.0 5.4 WSW 5.4 0.0 0.1
21:59 10.8 10.7 99 1025.0 5.4 WSW 5.4 0.0 0.1
22:00 10.8 10.7 99 1024.9 4.5 WSW 5.4 0.0 0.1
22:01 10.8 10.7 99 1025.1 3.1 S 5.4 0.0 0.1
22:02 10.8 10.7 99 1025.0 3.8 S 5.4 0.0 0.1
22:03 10.8 10.7 99 1025.2 5.4 S 5.4 0.0 0.1
22:04 10.8 10.7 99 1025.0 5.4 S 5.4 0.0 0.1
22:05 10.8 10.7 99 1025.0 5.4 S 5.4 0.0 0.1
22:06 10.8 10.7 99 1025.0 5.4 S 5.4 0.0 0.1
22:06 10.8 10.7 99 1025.0 5.4 S 5.4 0.0 0.1
22:08 10.8 10.7 99 1024.9 5.4 S 5.4 0.0 0.1
22:10 10.8 10.7 99 1024.9 3.8 S 5.4 0.0 0.1
22:11 10.8 10.7 99 1024.9 3.1 S 5.4 0.0 0.1
22:13 10.8 10.7 99 1025.0 4.5 S 5.4 0.0 0.1
22:13 10.8 10.7 99 1025.0 4.5 S 5.4 0.0 0.1
22:14 10.8 10.7 99 1025.0 4.5 NW 5.4 0.0 0.1
22:14 10.8 10.7 99 1025.0 4.5 NW 5.4 0.0 0.1
22:16 10.8 10.7 99 1024.9 4.5 S 5.4 0.0 0.1
22:18 10.8 10.7 99 1025.0 4.5 S 5.4 0.0 0.1
22:19 10.8 10.7 99 1025.1 4.5 WSW 5.4 0.0 0.1
22:21 10.8 10.7 99 1025.1 4.5 S 5.4 0.0 0.1
22:21 10.8 10.7 99 1025.1 4.5 S 5.4 0.0 0.1
22:22 10.8 10.7 99 1025.0 3.8 S 5.4 0.0 0.1
22:23 10.8 10.7 99 1024.9 3.1 S 5.4 0.0 0.1
22:24 10.8 10.7 99 1024.8 2.2 S 5.4 0.0 0.1
22:26 10.8 10.7 99 1024.9 4.5 S 4.5 0.0 0.1
22:26 10.8 10.7 99 1024.9 4.5 S 4.5 0.0 0.1
22:27 10.8 10.7 99 1025.1 4.5 S 4.5 0.0 0.1
22:28 10.8 10.7 99 1024.9 3.8 S 4.5 0.0 0.1
22:29 10.8 10.7 99 1024.8 3.1 S 4.5 0.0 0.1
22:30 10.8 10.7 99 1025.0 3.8 S 4.5 0.0 0.1
22:31 10.8 10.7 99 1024.9 3.8 S 4.5 0.0 0.1
22:31 10.8 10.7 99 1024.9 3.8 S 4.5 0.0 0.1
22:33 10.8 10.7 99 1024.9 3.8 SE 4.5 0.0 0.1
22:34 10.8 10.7 99 1024.9 3.8 SE 4.5 0.0 0.1
22:35 10.8 10.7 99 1024.7 3.1 S 4.5 0.0 0.1
22:35 10.8 10.7 99 1024.7 3.1 S 4.5 0.0 0.1
22:37 10.8 10.7 99 1024.9 3.1 N 4.5 0.0 0.1
22:38 10.8 10.7 99 1024.8 4.5 S 4.5 0.0 0.1
22:39 10.8 10.7 99 1024.7 3.1 S 4.5 0.0 0.1
22:40 10.8 10.7 99 1024.7 3.8 S 4.5 0.0 0.1
22:42 10.8 10.7 99 1024.7 3.8 S 4.5 0.0 0.1
22:42 10.8 10.7 99 1024.7 3.8 S 4.5 0.0 0.1
22:43 10.8 10.7 99 1024.8 4.5 N 4.5 0.0 0.1
22:44 10.8 10.7 99 1024.8 3.8 WSW 4.5 0.0 0.1
22:45 10.8 10.7 99 1024.8 3.1 S 4.5 0.0 0.1
22:46 10.8 10.7 99 1024.9 3.8 WSW 4.5 0.0 0.1
22:47 10.8 10.7 99 1024.8 3.1 S 4.5 0.0 0.1
22:49 10.8 10.7 99 1024.8 4.5 S 5.4 0.0 0.1
22:50 10.8 10.7 99 1024.9 3.1 S 5.4 0.0 0.1
22:50 10.8 10.7 99 1024.9 3.1 S 5.4 0.0 0.1
22:51 10.8 10.7 99 1024.9 3.1 S 5.4 0.0 0.1
22:52 10.8 10.7 99 1024.9 4.5 S 5.4 0.0 0.1
22:53 10.8 10.7 99 1024.9 3.1 N 5.4 0.0 0.1
22:54 10.8 10.7 99 1025.0 3.8 S 5.4 0.0 0.1
22:55 10.8 10.7 99 1025.0 4.5 WSW 5.4 0.0 0.1
22:56 10.8 10.7 99 1024.9 3.1 S 5.4 0.0 0.1
22:58 10.8 10.7 99 1025.0 3.8 S 5.4 0.0 0.1
22:58 10.8 10.7 99 1025.0 3.8 S 5.4 0.0 0.1
22:59 10.8 10.7 99 1024.9 5.4 S 5.4 0.0 0.1
23:00 10.8 10.7 99 1025.0 3.8 W 5.4 0.0 0.1
23:01 10.8 10.7 99 1025.0 3.8 WSW 5.4 0.0 0.1
23:02 10.8 10.7 99 1025.0 4.5 WSW 5.4 0.0 0.1
23:03 10.8 10.7 99 1025.0 5.4 S 5.4 0.0 0.1
23:04 10.8 10.7 99 1024.9 5.4 S 5.4 0.0 0.1
23:06 10.8 10.7 99 1024.9 5.4 S 5.4 0.0 0.1
23:06 10.8 10.7 99 1024.9 5.4 S 5.4 0.0 0.1
23:07 10.8 10.7 99 1025.0 5.4 S 5.4 0.0 0.1
23:08 10.8 10.7 99 1024.9 5.4 S 5.4 0.0 0.1
23:09 10.8 10.7 99 1025.0 5.4 S 5.4 0.0 0.1
23:09 10.8 10.7 99 1025.0 5.4 S 5.4 0.0 0.1
23:11 10.8 10.7 99 1024.9 6.0 WSW 6.0 0.0 0.1
23:13 10.8 10.7 99 1025.0 8.3 WSW 9.2 0.8 0.2
23:13 10.8 10.7 99 1025.0 8.3 WSW 9.2 0.8 0.2
23:14 10.9 10.8 99 1025.0 6.9 S 9.2 0.8 0.2
23:15 10.8 10.7 99 1024.9 7.6 WSW 9.2 0.8 0.2
23:15 10.8 10.7 99 1024.9 7.6 WSW 9.2 0.8 0.2
23:17 10.8 10.7 99 1025.0 6.9 WSW 9.2 0.0 0.2
23:19 10.8 10.7 99 1025.0 8.3 S 9.2 0.0 0.2
23:19 10.8 10.7 99 1025.0 8.3 S 9.2 0.0 0.2
23:20 10.8 10.7 99 1024.9 6.0 WSW 9.2 0.8 0.3
23:20 10.8 10.7 99 1024.9 6.0 WSW 9.2 0.8 0.3
23:22 10.8 10.7 99 1025.1 6.9 WSW 9.2 0.8 0.3
23:23 10.8 10.7 99 1024.8 6.9 WSW 9.2 0.8 0.3
23:24 10.8 10.7 99 1024.9 6.9 WSW 9.2 0.8 0.3
23:25 10.8 10.7 99 1024.9 6.9 WSW 9.2 0.0 0.3
23:26 10.8 10.7 99 1024.8 5.4 WSW 9.2 0.0 0.3
23:27 10.8 10.7 99 1024.8 4.5 WSW 9.2 0.0 0.3
23:28 10.8 10.7 99 1024.9 6.0 WSW 8.3 0.0 0.3
23:29 10.8 10.7 99 1024.9 6.0 S 7.6 0.0 0.3
23:29 10.8 10.7 99 1024.9 6.0 S 7.6 0.0 0.3
23:31 10.7 10.6 99 1025.0 6.0 WSW 7.6 0.0 0.3
23:32 10.8 10.7 99 1024.9 6.9 WSW 7.6 0.8 0.3
23:33 10.8 10.7 99 1024.9 6.9 S 7.6 0.8 0.3
23:34 10.7 10.6 99 1024.9 4.5 WSW 7.6 0.8 0.3
23:35 10.8 10.7 99 1024.8 3.8 WSW 6.9 0.8 0.3
23:36 10.7 10.6 99 1024.9 4.5 WSW 6.9 0.8 0.3
23:37 10.7 10.6 99 1024.8 4.5 WSW 6.9 0.0 0.3
23:38 10.7 10.6 99 1024.8 3.8 WSW 6.9 0.0 0.3
23:38 10.7 10.6 99 1024.8 3.8 WSW 6.9 0.0 0.3
23:40 10.7 10.6 99 1024.8 4.5 WSW 6.9 0.0 0.3
23:41 10.7 10.6 99 1024.8 5.4 WSW 6.9 0.0 0.3
23:42 10.7 10.6 99 1024.9 3.8 WSW 6.9 0.8 0.4
23:43 10.7 10.6 99 1024.9 3.8 S 6.0 0.8 0.4
23:44 10.7 10.6 99 1024.9 3.8 S 5.4 0.8 0.4
23:45 10.7 10.6 99 1025.0 4.5 S 5.4 0.8 0.4
23:46 10.7 10.6 99 1025.0 3.8 S 5.4 0.8 0.4
23:46 10.7 10.6 99 1025.0 3.8 S 5.4 0.8 0.4
23:47 10.7 10.6 99 1025.0 4.5 S 5.4 0.0 0.4
23:49 10.7 10.6 99 1024.8 4.5 S 5.4 0.0 0.4
23:50 10.7 10.6 99 1024.8 3.8 WSW 5.4 0.0 0.4
23:51 10.7 10.6 99 1024.9 3.8 S 4.5 0.0 0.4
23:52 10.7 10.6 99 1025.0 4.5 S 4.5 0.0 0.4
23:53 10.7 10.6 99 1024.9 4.5 S 4.5 0.0 0.4
23:54 10.7 10.6 99 1025.0 4.5 S 6.9 0.0 0.4
23:55 10.7 10.6 99 1025.1 6.9 WSW 6.9 0.0 0.4
23:55 10.7 10.6 99 1025.1 6.9 WSW 6.9 0.0 0.4
23:57 10.7 10.6 99 1025.0 5.4 S 6.9 0.0 0.4
23:58 10.8 10.7 99 1025.0 4.5 S 6.9 0.0 0.4
23:59 10.7 10.6 99 1024.9 3.8 S 6.9 0.0 0.4
23:59 10.7 10.6 99 1024.9 3.8 S 6.9 0.0 0.4

UK - WEATHER STATION TOPSITES - UK World Weather Websites

This is a private weather station, never base important decisions or events on data from this weather station. Although every effort has been made to make the data as accurate as possible it does not meet MetOffice standards. It is proved as a guide of local weather conditions. We accept no liability for any loss which may arise from use of the data.

Copyright © Carnkie Weather 2009 - 2017.